<?xml version='1.0' encoding='UTF-8'?><gpx version="1.1" creator="JPX - https://github.com/jenetics/jpx" xmlns="http://www.topografix.com/GPX/1/1"><trk><trkseg><trkpt lat="44.1644891" lon="10.1266478"><ele>225.00000000000003</ele><time>2026-04-04T09:06:52.752Z</time></trkpt><trkpt lat="44.1644463" lon="10.1267244"><ele>225.0</ele><time>2026-04-04T09:06:59.858Z</time></trkpt><trkpt lat="44.1643858" lon="10.1267708"><ele>225.00000000000003</ele><time>2026-04-04T09:07:04.794Z</time></trkpt><trkpt lat="44.164325" lon="10.1268198"><ele>225.00000000000003</ele><time>2026-04-04T09:07:10.87Z</time></trkpt><trkpt lat="44.1642865" lon="10.1269095"><ele>225.0</ele><time>2026-04-04T09:07:15.875Z</time></trkpt><trkpt lat="44.164246" lon="10.1269824"><ele>225.00000000000003</ele><time>2026-04-04T09:07:21.872Z</time></trkpt><trkpt lat="44.1641987" lon="10.1270457"><ele>225.00000000000003</ele><time>2026-04-04T09:07:27.872Z</time></trkpt><trkpt lat="44.1641379" lon="10.127084"><ele>225.00000000000003</ele><time>2026-04-04T09:07:33.866Z</time></trkpt><trkpt lat="44.1640819" lon="10.1271466"><ele>225.0</ele><time>2026-04-04T09:07:55.887Z</time></trkpt><trkpt lat="44.1640353" lon="10.1272141"><ele>225.00000000000003</ele><time>2026-04-04T09:08:01.866Z</time></trkpt><trkpt lat="44.1639998" lon="10.1272875"><ele>225.00000000000003</ele><time>2026-04-04T09:08:07.876Z</time></trkpt><trkpt lat="44.1639721" lon="10.1273733"><ele>225.0</ele><time>2026-04-04T09:08:14.889Z</time></trkpt><trkpt lat="44.1639526" lon="10.1274967"><ele>225.00000000000003</ele><time>2026-04-04T09:08:54.862Z</time></trkpt><trkpt lat="44.1639229" lon="10.1275794"><ele>225.00000000000003</ele><time>2026-04-04T09:08:59.849Z</time></trkpt><trkpt lat="44.1639075" lon="10.1276659"><ele>226.8571428571429</ele><time>2026-04-04T09:09:04.879Z</time></trkpt><trkpt lat="44.1638677" lon="10.1277478"><ele>228.71428571428572</ele><time>2026-04-04T09:09:10.863Z</time></trkpt><trkpt lat="44.1638675" lon="10.1278464"><ele>230.57142857142858</ele><time>2026-04-04T09:09:16.899Z</time></trkpt><trkpt lat="44.1638676" lon="10.1279342"><ele>232.42857142857144</ele><time>2026-04-04T09:09:22.871Z</time></trkpt><trkpt lat="44.1638497" lon="10.1280284"><ele>234.28571428571428</ele><time>2026-04-04T09:09:33.846Z</time></trkpt><trkpt lat="44.1638289" lon="10.1281204"><ele>236.14285714285714</ele><time>2026-04-04T09:09:40.92Z</time></trkpt><trkpt lat="44.1637945" lon="10.1281949"><ele>238.0</ele><time>2026-04-04T09:09:45.879Z</time></trkpt><trkpt lat="44.1637643" lon="10.128272"><ele>238.0</ele><time>2026-04-04T09:09:49.914Z</time></trkpt><trkpt lat="44.1637212" lon="10.1283553"><ele>238.0</ele><time>2026-04-04T09:09:54.831Z</time></trkpt><trkpt lat="44.1636852" lon="10.1284358"><ele>238.0</ele><time>2026-04-04T09:09:59.888Z</time></trkpt><trkpt lat="44.1636487" lon="10.1285077"><ele>238.0</ele><time>2026-04-04T09:10:04.788Z</time></trkpt><trkpt lat="44.1636208" lon="10.1286021"><ele>238.0</ele><time>2026-04-04T09:10:10.851Z</time></trkpt><trkpt lat="44.1635995" lon="10.1286999"><ele>238.0</ele><time>2026-04-04T09:10:17.882Z</time></trkpt><trkpt lat="44.1635605" lon="10.1287698"><ele>238.0</ele><time>2026-04-04T09:10:23.871Z</time></trkpt><trkpt lat="44.1635395" lon="10.1288634"><ele>238.0</ele><time>2026-04-04T09:10:29.874Z</time></trkpt><trkpt lat="44.1635001" lon="10.1289345"><ele>238.0</ele><time>2026-04-04T09:10:34.885Z</time></trkpt><trkpt lat="44.1634501" lon="10.1290046"><ele>238.0</ele><time>2026-04-04T09:10:41.891Z</time></trkpt><trkpt lat="44.1634106" lon="10.1290791"><ele>238.0</ele><time>2026-04-04T09:10:47.886Z</time></trkpt><trkpt lat="44.1633629" lon="10.1291551"><ele>238.0</ele><time>2026-04-04T09:10:53.875Z</time></trkpt><trkpt lat="44.1634012" lon="10.1292523"><ele>238.0</ele><time>2026-04-04T09:11:11.787Z</time></trkpt><trkpt lat="44.163424" lon="10.1293484"><ele>238.0</ele><time>2026-04-04T09:11:18.871Z</time></trkpt><trkpt lat="44.1634792" lon="10.1294021"><ele>236.0</ele><time>2026-04-04T09:11:30.88Z</time></trkpt><trkpt lat="44.1635517" lon="10.1293812"><ele>234.0</ele><time>2026-04-04T09:11:36.865Z</time></trkpt><trkpt lat="44.1636247" lon="10.1293984"><ele>232.0</ele><time>2026-04-04T09:11:41.885Z</time></trkpt><trkpt lat="44.1636923" lon="10.1294331"><ele>230.0</ele><time>2026-04-04T09:11:46.873Z</time></trkpt><trkpt lat="44.1637579" lon="10.1294635"><ele>228.0</ele><time>2026-04-04T09:11:51.876Z</time></trkpt><trkpt lat="44.1638012" lon="10.1295313"><ele>226.0</ele><time>2026-04-04T09:11:56.895Z</time></trkpt><trkpt lat="44.1638389" lon="10.1296036"><ele>224.0</ele><time>2026-04-04T09:12:01.876Z</time></trkpt><trkpt lat="44.1638891" lon="10.1296668"><ele>224.0</ele><time>2026-04-04T09:12:07.902Z</time></trkpt><trkpt lat="44.1639595" lon="10.1296953"><ele>224.0</ele><time>2026-04-04T09:12:15.772Z</time></trkpt><trkpt lat="44.1640309" lon="10.129723"><ele>224.0</ele><time>2026-04-04T09:12:20.896Z</time></trkpt><trkpt lat="44.1640668" lon="10.1298163"><ele>224.0</ele><time>2026-04-04T09:12:26.893Z</time></trkpt><trkpt lat="44.1641077" lon="10.1299014"><ele>224.0</ele><time>2026-04-04T09:12:35.879Z</time></trkpt><trkpt lat="44.1641528" lon="10.1299717"><ele>224.0</ele><time>2026-04-04T09:12:40.867Z</time></trkpt><trkpt lat="44.1641893" lon="10.1300436"><ele>224.0</ele><time>2026-04-04T09:12:46.873Z</time></trkpt><trkpt lat="44.1641565" lon="10.1301277"><ele>223.14285714285714</ele><time>2026-04-04T09:12:55.88Z</time></trkpt><trkpt lat="44.1641052" lon="10.1301817"><ele>222.28571428571428</ele><time>2026-04-04T09:13:00.879Z</time></trkpt><trkpt lat="44.1640447" lon="10.1302408"><ele>221.42857142857144</ele><time>2026-04-04T09:13:08.888Z</time></trkpt><trkpt lat="44.1639909" lon="10.1303031"><ele>220.57142857142856</ele><time>2026-04-04T09:13:13.881Z</time></trkpt><trkpt lat="44.1639396" lon="10.1303564"><ele>219.71428571428572</ele><time>2026-04-04T09:13:20.885Z</time></trkpt><trkpt lat="44.1638903" lon="10.130422"><ele>218.85714285714286</ele><time>2026-04-04T09:13:27.789Z</time></trkpt><trkpt lat="44.1638275" lon="10.1304686"><ele>218.0</ele><time>2026-04-04T09:13:33.885Z</time></trkpt><trkpt lat="44.1637616" lon="10.1304926"><ele>218.0</ele><time>2026-04-04T09:13:39.887Z</time></trkpt><trkpt lat="44.163758" lon="10.1305816"><ele>218.0</ele><time>2026-04-04T09:13:48.851Z</time></trkpt><trkpt lat="44.1637789" lon="10.1306691"><ele>218.0</ele><time>2026-04-04T09:13:55.79Z</time></trkpt><trkpt lat="44.1637883" lon="10.1307607"><ele>218.0</ele><time>2026-04-04T09:14:01.846Z</time></trkpt><trkpt lat="44.1638462" lon="10.1308121"><ele>218.0</ele><time>2026-04-04T09:14:10.722Z</time></trkpt><trkpt lat="44.1638812" lon="10.1308853"><ele>218.0</ele><time>2026-04-04T09:14:19.886Z</time></trkpt><trkpt lat="44.163904" lon="10.1309741"><ele>218.0</ele><time>2026-04-04T09:14:27.888Z</time></trkpt><trkpt lat="44.1639225" lon="10.1310734"><ele>217.85714285714286</ele><time>2026-04-04T09:14:32.888Z</time></trkpt><trkpt lat="44.1638972" lon="10.1311667"><ele>217.71428571428572</ele><time>2026-04-04T09:14:43.87Z</time></trkpt><trkpt lat="44.1638763" lon="10.1312595"><ele>217.57142857142856</ele><time>2026-04-04T09:14:49.905Z</time></trkpt><trkpt lat="44.1638725" lon="10.1313563"><ele>217.42857142857144</ele><time>2026-04-04T09:14:56.873Z</time></trkpt><trkpt lat="44.1638599" lon="10.131443"><ele>217.28571428571428</ele><time>2026-04-04T09:15:02.895Z</time></trkpt><trkpt lat="44.1638681" lon="10.1315359"><ele>217.14285714285714</ele><time>2026-04-04T09:15:09.876Z</time></trkpt><trkpt lat="44.1638736" lon="10.1316341"><ele>217.0</ele><time>2026-04-04T09:15:15.866Z</time></trkpt><trkpt lat="44.1638691" lon="10.1317293"><ele>218.0</ele><time>2026-04-04T09:15:30.873Z</time></trkpt><trkpt lat="44.1638955" lon="10.1318131"><ele>219.0</ele><time>2026-04-04T09:15:46.878Z</time></trkpt><trkpt lat="44.1638865" lon="10.1319166"><ele>220.0</ele><time>2026-04-04T09:15:51.897Z</time></trkpt><trkpt lat="44.1638683" lon="10.1320074"><ele>221.0</ele><time>2026-04-04T09:15:57.884Z</time></trkpt><trkpt lat="44.1638517" lon="10.1321001"><ele>222.0</ele><time>2026-04-04T09:16:03.895Z</time></trkpt><trkpt lat="44.1638173" lon="10.1321913"><ele>223.0</ele><time>2026-04-04T09:16:08.891Z</time></trkpt><trkpt lat="44.1637941" lon="10.132282"><ele>224.0</ele><time>2026-04-04T09:16:13.874Z</time></trkpt><trkpt lat="44.1637695" lon="10.1323719"><ele>225.83333333333334</ele><time>2026-04-04T09:16:19.886Z</time></trkpt><trkpt lat="44.1637305" lon="10.1324725"><ele>227.66666666666669</ele><time>2026-04-04T09:16:48.876Z</time></trkpt><trkpt lat="44.1636592" lon="10.1324906"><ele>229.5</ele><time>2026-04-04T09:17:29.836Z</time></trkpt><trkpt lat="44.1636344" lon="10.1325765"><ele>231.33333333333331</ele><time>2026-04-04T09:17:36.872Z</time></trkpt><trkpt lat="44.1636321" lon="10.1326691"><ele>233.16666666666666</ele><time>2026-04-04T09:17:43.906Z</time></trkpt><trkpt lat="44.1635255" lon="10.1327809"><ele>235.0</ele><time>2026-04-04T09:18:43.822Z</time></trkpt><trkpt lat="44.1635116" lon="10.1328772"><ele>235.0</ele><time>2026-04-04T09:19:06.863Z</time></trkpt><trkpt lat="44.1634927" lon="10.1329611"><ele>234.99999999999997</ele><time>2026-04-04T09:19:17.87Z</time></trkpt><trkpt lat="44.1634454" lon="10.1330213"><ele>235.0</ele><time>2026-04-04T09:19:44.867Z</time></trkpt><trkpt lat="44.1634357" lon="10.1331087"><ele>235.0</ele><time>2026-04-04T09:20:11.831Z</time></trkpt><trkpt lat="44.163428" lon="10.1331963"><ele>234.99999999999997</ele><time>2026-04-04T09:20:33.889Z</time></trkpt><trkpt lat="44.1634047" lon="10.1332939"><ele>235.0</ele><time>2026-04-04T09:20:57.867Z</time></trkpt><trkpt lat="44.1633978" lon="10.1333873"><ele>235.0</ele><time>2026-04-04T09:21:01.884Z</time></trkpt><trkpt lat="44.1633803" lon="10.1334716"><ele>238.33333333333331</ele><time>2026-04-04T09:21:05.888Z</time></trkpt><trkpt lat="44.1633455" lon="10.1335502"><ele>241.66666666666666</ele><time>2026-04-04T09:21:17.877Z</time></trkpt><trkpt lat="44.1633374" lon="10.1336597"><ele>245.0</ele><time>2026-04-04T09:21:37.876Z</time></trkpt><trkpt lat="44.1633262" lon="10.1337462"><ele>248.33333333333331</ele><time>2026-04-04T09:21:41.879Z</time></trkpt><trkpt lat="44.1633101" lon="10.1338375"><ele>251.66666666666666</ele><time>2026-04-04T09:21:48.877Z</time></trkpt><trkpt lat="44.163229" lon="10.1340188"><ele>255.0</ele><time>2026-04-04T09:22:17.898Z</time></trkpt><trkpt lat="44.1631916" lon="10.1340986"><ele>257.14285714285717</ele><time>2026-04-04T09:22:22.823Z</time></trkpt><trkpt lat="44.1631459" lon="10.1341595"><ele>259.28571428571433</ele><time>2026-04-04T09:22:30.871Z</time></trkpt><trkpt lat="44.1630956" lon="10.1340998"><ele>261.42857142857144</ele><time>2026-04-04T09:23:14.838Z</time></trkpt><trkpt lat="44.1630458" lon="10.1340448"><ele>263.57142857142856</ele><time>2026-04-04T09:23:23.887Z</time></trkpt><trkpt lat="44.1629949" lon="10.1339647"><ele>265.71428571428567</ele><time>2026-04-04T09:23:33.874Z</time></trkpt><trkpt lat="44.1629416" lon="10.1339008"><ele>267.85714285714283</ele><time>2026-04-04T09:23:38.874Z</time></trkpt><trkpt lat="44.1628843" lon="10.1338559"><ele>270.0</ele><time>2026-04-04T09:23:45.879Z</time></trkpt><trkpt lat="44.1628659" lon="10.1339399"><ele>270.0</ele><time>2026-04-04T09:24:33.872Z</time></trkpt><trkpt lat="44.1628613" lon="10.1340332"><ele>270.0</ele><time>2026-04-04T09:24:56.872Z</time></trkpt><trkpt lat="44.162839" lon="10.1342096"><ele>270.0</ele><time>2026-04-04T09:25:34.875Z</time></trkpt><trkpt lat="44.162809" lon="10.134305"><ele>270.0</ele><time>2026-04-04T09:25:39.887Z</time></trkpt><trkpt lat="44.1627761" lon="10.1343819"><ele>270.0</ele><time>2026-04-04T09:25:48.875Z</time></trkpt><trkpt lat="44.1627725" lon="10.1344787"><ele>270.0</ele><time>2026-04-04T09:26:02.872Z</time></trkpt><trkpt lat="44.1627929" lon="10.1345716"><ele>272.7142857142857</ele><time>2026-04-04T09:26:12.883Z</time></trkpt><trkpt lat="44.1628085" lon="10.134661"><ele>275.4285714285714</ele><time>2026-04-04T09:26:25.879Z</time></trkpt><trkpt lat="44.1628492" lon="10.1347283"><ele>278.1428571428571</ele><time>2026-04-04T09:27:08.841Z</time></trkpt><trkpt lat="44.1628818" lon="10.1348274"><ele>280.85714285714283</ele><time>2026-04-04T09:28:53.894Z</time></trkpt><trkpt lat="44.1629188" lon="10.1349018"><ele>283.57142857142856</ele><time>2026-04-04T09:29:03.861Z</time></trkpt><trkpt lat="44.1629473" lon="10.1349859"><ele>286.2857142857143</ele><time>2026-04-04T09:29:10.873Z</time></trkpt><trkpt lat="44.1629867" lon="10.1350639"><ele>289.0</ele><time>2026-04-04T09:29:45.873Z</time></trkpt><trkpt lat="44.1630339" lon="10.1351349"><ele>291.8571428571429</ele><time>2026-04-04T09:29:51.876Z</time></trkpt><trkpt lat="44.1630733" lon="10.1352151"><ele>294.7142857142857</ele><time>2026-04-04T09:30:03.824Z</time></trkpt><trkpt lat="44.1630993" lon="10.1352993"><ele>297.57142857142856</ele><time>2026-04-04T09:30:23.902Z</time></trkpt><trkpt lat="44.1631333" lon="10.1353739"><ele>300.42857142857144</ele><time>2026-04-04T09:30:27.892Z</time></trkpt><trkpt lat="44.1631465" lon="10.1354608"><ele>303.2857142857143</ele><time>2026-04-04T09:30:37.873Z</time></trkpt><trkpt lat="44.1631547" lon="10.1355542"><ele>306.14285714285717</ele><time>2026-04-04T09:30:48.878Z</time></trkpt><trkpt lat="44.1631499" lon="10.1356489"><ele>309.0</ele><time>2026-04-04T09:30:55.873Z</time></trkpt><trkpt lat="44.16313" lon="10.1358074"><ele>310.5714285714286</ele><time>2026-04-04T09:31:34.87Z</time></trkpt><trkpt lat="44.1631271" lon="10.1359005"><ele>312.14285714285717</ele><time>2026-04-04T09:31:56.857Z</time></trkpt><trkpt lat="44.1630945" lon="10.1359786"><ele>313.7142857142857</ele><time>2026-04-04T09:32:20.843Z</time></trkpt><trkpt lat="44.1630483" lon="10.1360497"><ele>315.28571428571433</ele><time>2026-04-04T09:32:38.873Z</time></trkpt><trkpt lat="44.16302" lon="10.1361311"><ele>316.8571428571429</ele><time>2026-04-04T09:32:45.882Z</time></trkpt><trkpt lat="44.1629735" lon="10.1362135"><ele>318.42857142857144</ele><time>2026-04-04T09:33:08.885Z</time></trkpt><trkpt lat="44.1629179" lon="10.1362598"><ele>320.0</ele><time>2026-04-04T09:33:15.893Z</time></trkpt><trkpt lat="44.1628346" lon="10.1362894"><ele>320.0</ele><time>2026-04-04T09:35:52.847Z</time></trkpt><trkpt lat="44.1627678" lon="10.1363196"><ele>320.0</ele><time>2026-04-04T09:35:55.883Z</time></trkpt><trkpt lat="44.1627116" lon="10.1363859"><ele>320.0</ele><time>2026-04-04T09:36:02.864Z</time></trkpt><trkpt lat="44.1626482" lon="10.1364209"><ele>320.0</ele><time>2026-04-04T09:36:07.842Z</time></trkpt><trkpt lat="44.1625814" lon="10.1364619"><ele>320.0</ele><time>2026-04-04T09:36:12.888Z</time></trkpt><trkpt lat="44.1625484" lon="10.1365379"><ele>320.0</ele><time>2026-04-04T09:36:18.87Z</time></trkpt><trkpt lat="44.1625281" lon="10.1366328"><ele>320.0</ele><time>2026-04-04T09:36:26.906Z</time></trkpt><trkpt lat="44.1625246" lon="10.1367216"><ele>320.57142857142856</ele><time>2026-04-04T09:36:33.87Z</time></trkpt><trkpt lat="44.1625395" lon="10.1368568"><ele>321.14285714285717</ele><time>2026-04-04T09:37:02.884Z</time></trkpt><trkpt lat="44.1625548" lon="10.1369456"><ele>321.7142857142857</ele><time>2026-04-04T09:37:10.89Z</time></trkpt><trkpt lat="44.1625664" lon="10.1370421"><ele>322.2857142857143</ele><time>2026-04-04T09:37:19.877Z</time></trkpt><trkpt lat="44.162555" lon="10.1371316"><ele>322.85714285714283</ele><time>2026-04-04T09:37:25.873Z</time></trkpt><trkpt lat="44.16255" lon="10.1372282"><ele>323.42857142857144</ele><time>2026-04-04T09:37:32.895Z</time></trkpt><trkpt lat="44.1625522" lon="10.1373246"><ele>324.0</ele><time>2026-04-04T09:37:43.894Z</time></trkpt><trkpt lat="44.1625721" lon="10.1374156"><ele>325.57142857142856</ele><time>2026-04-04T09:37:54.875Z</time></trkpt><trkpt lat="44.162562" lon="10.1375077"><ele>327.1428571428571</ele><time>2026-04-04T09:38:09.886Z</time></trkpt><trkpt lat="44.1625427" lon="10.1376014"><ele>328.71428571428567</ele><time>2026-04-04T09:38:16.885Z</time></trkpt><trkpt lat="44.1625402" lon="10.13769"><ele>330.2857142857143</ele><time>2026-04-04T09:38:26.877Z</time></trkpt><trkpt lat="44.1625866" lon="10.1377589"><ele>331.85714285714283</ele><time>2026-04-04T09:38:34.885Z</time></trkpt><trkpt lat="44.1626183" lon="10.1378696"><ele>333.4285714285714</ele><time>2026-04-04T09:38:55.887Z</time></trkpt><trkpt lat="44.1626658" lon="10.13794"><ele>335.0</ele><time>2026-04-04T09:39:05.882Z</time></trkpt><trkpt lat="44.1627179" lon="10.1379894"><ele>334.99999999999994</ele><time>2026-04-04T09:39:15.77Z</time></trkpt><trkpt lat="44.1627819" lon="10.1380357"><ele>335.0</ele><time>2026-04-04T09:39:23.431Z</time></trkpt><trkpt lat="44.1628361" lon="10.1381058"><ele>335.0</ele><time>2026-04-04T09:39:33.291Z</time></trkpt><trkpt lat="44.1628757" lon="10.1381971"><ele>335.0</ele><time>2026-04-04T09:39:39.372Z</time></trkpt><trkpt lat="44.1629379" lon="10.1382368"><ele>335.0</ele><time>2026-04-04T09:39:47.874Z</time></trkpt><trkpt lat="44.1629542" lon="10.1383377"><ele>334.99999999999994</ele><time>2026-04-04T09:39:51.867Z</time></trkpt><trkpt lat="44.1629175" lon="10.1384299"><ele>335.0</ele><time>2026-04-04T09:39:55.885Z</time></trkpt><trkpt lat="44.162853" lon="10.1384681"><ele>337.71428571428567</ele><time>2026-04-04T09:40:01.874Z</time></trkpt><trkpt lat="44.1627882" lon="10.1384356"><ele>340.42857142857144</ele><time>2026-04-04T09:40:25.724Z</time></trkpt><trkpt lat="44.1628027" lon="10.1385242"><ele>343.1428571428571</ele><time>2026-04-04T09:40:39.862Z</time></trkpt><trkpt lat="44.1627934" lon="10.1386217"><ele>345.85714285714283</ele><time>2026-04-04T09:40:48.868Z</time></trkpt><trkpt lat="44.1627714" lon="10.1387059"><ele>348.57142857142856</ele><time>2026-04-04T09:41:02.842Z</time></trkpt><trkpt lat="44.1627573" lon="10.1387926"><ele>351.2857142857143</ele><time>2026-04-04T09:41:08.764Z</time></trkpt><trkpt lat="44.1627295" lon="10.138884"><ele>354.0</ele><time>2026-04-04T09:41:13.832Z</time></trkpt><trkpt lat="44.1627168" lon="10.138972"><ele>355.8571428571429</ele><time>2026-04-04T09:41:19.876Z</time></trkpt><trkpt lat="44.1627243" lon="10.1390793"><ele>357.71428571428567</ele><time>2026-04-04T09:41:23.884Z</time></trkpt><trkpt lat="44.1627319" lon="10.1391721"><ele>359.57142857142856</ele><time>2026-04-04T09:41:31.878Z</time></trkpt><trkpt lat="44.1627292" lon="10.1392831"><ele>361.42857142857144</ele><time>2026-04-04T09:41:36.865Z</time></trkpt><trkpt lat="44.1627546" lon="10.1393822"><ele>363.28571428571433</ele><time>2026-04-04T09:41:42.872Z</time></trkpt><trkpt lat="44.1627747" lon="10.1394758"><ele>365.1428571428571</ele><time>2026-04-04T09:41:49.881Z</time></trkpt><trkpt lat="44.162819" lon="10.1395426"><ele>367.0</ele><time>2026-04-04T09:41:57.882Z</time></trkpt><trkpt lat="44.1628917" lon="10.1395497"><ele>367.0</ele><time>2026-04-04T09:43:46.876Z</time></trkpt><trkpt lat="44.1629554" lon="10.1396808"><ele>367.0</ele><time>2026-04-04T09:44:33.884Z</time></trkpt><trkpt lat="44.1630244" lon="10.1397092"><ele>367.0</ele><time>2026-04-04T09:44:36.783Z</time></trkpt><trkpt lat="44.163065" lon="10.1397883"><ele>367.0</ele><time>2026-04-04T09:44:42.886Z</time></trkpt><trkpt lat="44.1631292" lon="10.1398295"><ele>367.0</ele><time>2026-04-04T09:44:48.875Z</time></trkpt><trkpt lat="44.1631819" lon="10.1398879"><ele>367.0</ele><time>2026-04-04T09:44:56.873Z</time></trkpt><trkpt lat="44.1632243" lon="10.1399589"><ele>362.4285714285714</ele><time>2026-04-04T09:45:03.886Z</time></trkpt><trkpt lat="44.1632516" lon="10.1400495"><ele>357.8571428571429</ele><time>2026-04-04T09:45:12.875Z</time></trkpt><trkpt lat="44.1632858" lon="10.1401237"><ele>353.2857142857143</ele><time>2026-04-04T09:45:20.892Z</time></trkpt><trkpt lat="44.1633051" lon="10.1402136"><ele>348.71428571428567</ele><time>2026-04-04T09:45:27.88Z</time></trkpt><trkpt lat="44.1633462" lon="10.1402993"><ele>344.1428571428571</ele><time>2026-04-04T09:45:50.874Z</time></trkpt><trkpt lat="44.1633697" lon="10.1403905"><ele>339.57142857142856</ele><time>2026-04-04T09:45:55.885Z</time></trkpt><trkpt lat="44.1633685" lon="10.1404859"><ele>335.0</ele><time>2026-04-04T09:46:01.908Z</time></trkpt><trkpt lat="44.163343" lon="10.1405663"><ele>334.99999999999994</ele><time>2026-04-04T09:46:06.889Z</time></trkpt><trkpt lat="44.1633098" lon="10.1406429"><ele>335.0</ele><time>2026-04-04T09:46:13.889Z</time></trkpt><trkpt lat="44.1633076" lon="10.1407318"><ele>335.0</ele><time>2026-04-04T09:46:20.909Z</time></trkpt><trkpt lat="44.1633411" lon="10.1408108"><ele>335.0</ele><time>2026-04-04T09:46:26.887Z</time></trkpt><trkpt lat="44.1634134" lon="10.1408238"><ele>335.0</ele><time>2026-04-04T09:46:43.888Z</time></trkpt><trkpt lat="44.1634787" lon="10.1408705"><ele>334.99999999999994</ele><time>2026-04-04T09:46:49.887Z</time></trkpt><trkpt lat="44.1635353" lon="10.1409231"><ele>335.0</ele><time>2026-04-04T09:46:55.902Z</time></trkpt><trkpt lat="44.1635974" lon="10.1409591"><ele>336.1666666666667</ele><time>2026-04-04T09:47:02.877Z</time></trkpt><trkpt lat="44.1636971" lon="10.1409984"><ele>337.33333333333337</ele><time>2026-04-04T09:47:23.877Z</time></trkpt><trkpt lat="44.1637618" lon="10.140994"><ele>338.5</ele><time>2026-04-04T09:47:28.884Z</time></trkpt><trkpt lat="44.1638083" lon="10.1410637"><ele>339.6666666666667</ele><time>2026-04-04T09:47:44.886Z</time></trkpt><trkpt lat="44.1638856" lon="10.141088"><ele>340.8333333333333</ele><time>2026-04-04T09:47:57.9Z</time></trkpt><trkpt lat="44.1639482" lon="10.1411143"><ele>342.0</ele><time>2026-04-04T09:48:01.883Z</time></trkpt><trkpt lat="44.1640196" lon="10.1411426"><ele>339.2857142857143</ele><time>2026-04-04T09:48:06.896Z</time></trkpt><trkpt lat="44.1640808" lon="10.141184"><ele>336.57142857142856</ele><time>2026-04-04T09:48:16.903Z</time></trkpt><trkpt lat="44.1641471" lon="10.1411999"><ele>333.8571428571429</ele><time>2026-04-04T09:48:24.881Z</time></trkpt><trkpt lat="44.1642151" lon="10.1412169"><ele>331.1428571428571</ele><time>2026-04-04T09:48:35.886Z</time></trkpt><trkpt lat="44.1642803" lon="10.1412163"><ele>328.42857142857144</ele><time>2026-04-04T09:48:41.884Z</time></trkpt><trkpt lat="44.1643318" lon="10.1412713"><ele>325.7142857142857</ele><time>2026-04-04T09:48:49.888Z</time></trkpt><trkpt lat="44.1643814" lon="10.1413286"><ele>323.0</ele><time>2026-04-04T09:48:55.878Z</time></trkpt><trkpt lat="44.1644238" lon="10.1414013"><ele>323.00000000000006</ele><time>2026-04-04T09:49:01.878Z</time></trkpt><trkpt lat="44.1644584" lon="10.1414842"><ele>323.0</ele><time>2026-04-04T09:49:06.899Z</time></trkpt><trkpt lat="44.1645091" lon="10.1415551"><ele>323.0</ele><time>2026-04-04T09:49:45.855Z</time></trkpt><trkpt lat="44.1645404" lon="10.1416481"><ele>323.0</ele><time>2026-04-04T09:49:51.882Z</time></trkpt><trkpt lat="44.1645716" lon="10.141728"><ele>323.0</ele><time>2026-04-04T09:49:57.897Z</time></trkpt><trkpt lat="44.164617" lon="10.1417931"><ele>323.00000000000006</ele><time>2026-04-04T09:50:03.884Z</time></trkpt><trkpt lat="44.1646647" lon="10.1418537"><ele>323.0</ele><time>2026-04-04T09:50:09.884Z</time></trkpt><trkpt lat="44.1647089" lon="10.1419218"><ele>322.00000000000006</ele><time>2026-04-04T09:50:17.888Z</time></trkpt><trkpt lat="44.1647692" lon="10.1419584"><ele>321.0</ele><time>2026-04-04T09:50:29.886Z</time></trkpt><trkpt lat="44.1648379" lon="10.1419706"><ele>320.0</ele><time>2026-04-04T09:50:33.893Z</time></trkpt><trkpt lat="44.164908" lon="10.1419815"><ele>319.0</ele><time>2026-04-04T09:50:39.892Z</time></trkpt><trkpt lat="44.1649938" lon="10.1420134"><ele>318.0</ele><time>2026-04-04T09:50:55.89Z</time></trkpt><trkpt lat="44.1650559" lon="10.1420499"><ele>317.00000000000006</ele><time>2026-04-04T09:50:58.805Z</time></trkpt><trkpt lat="44.1651101" lon="10.1421114"><ele>316.0</ele><time>2026-04-04T09:51:03.545Z</time></trkpt><trkpt lat="44.1651627" lon="10.1421744"><ele>316.00000000000006</ele><time>2026-04-04T09:51:08.879Z</time></trkpt><trkpt lat="44.1652108" lon="10.1422336"><ele>316.0</ele><time>2026-04-04T09:51:13.886Z</time></trkpt><trkpt lat="44.1652675" lon="10.1422725"><ele>316.0</ele><time>2026-04-04T09:51:24.886Z</time></trkpt><trkpt lat="44.1653158" lon="10.1423375"><ele>316.0</ele><time>2026-04-04T09:51:47.888Z</time></trkpt><trkpt lat="44.1653781" lon="10.1423984"><ele>316.0</ele><time>2026-04-04T09:51:52.852Z</time></trkpt><trkpt lat="44.1654285" lon="10.1424558"><ele>316.00000000000006</ele><time>2026-04-04T09:51:57.88Z</time></trkpt><trkpt lat="44.1654562" lon="10.1425363"><ele>316.0</ele><time>2026-04-04T09:52:03.884Z</time></trkpt><trkpt lat="44.1654898" lon="10.142612"><ele>314.8571428571429</ele><time>2026-04-04T09:52:08.885Z</time></trkpt><trkpt lat="44.1655316" lon="10.1426874"><ele>313.7142857142857</ele><time>2026-04-04T09:52:14.894Z</time></trkpt><trkpt lat="44.165583" lon="10.1427546"><ele>312.57142857142856</ele><time>2026-04-04T09:52:22.882Z</time></trkpt><trkpt lat="44.1656366" lon="10.1428035"><ele>311.42857142857144</ele><time>2026-04-04T09:52:30.887Z</time></trkpt><trkpt lat="44.1657032" lon="10.1427862"><ele>310.2857142857143</ele><time>2026-04-04T09:52:51.899Z</time></trkpt><trkpt lat="44.1656995" lon="10.142876"><ele>309.14285714285717</ele><time>2026-04-04T09:53:34.877Z</time></trkpt><trkpt lat="44.1657065" lon="10.1429909"><ele>308.0</ele><time>2026-04-04T09:53:59.873Z</time></trkpt><trkpt lat="44.1657331" lon="10.1431128"><ele>308.0</ele><time>2026-04-04T09:54:12.872Z</time></trkpt><trkpt lat="44.1657565" lon="10.1432103"><ele>308.0</ele><time>2026-04-04T09:54:15.906Z</time></trkpt><trkpt lat="44.165794" lon="10.143297"><ele>308.0</ele><time>2026-04-04T09:54:22.916Z</time></trkpt><trkpt lat="44.1658478" lon="10.1433639"><ele>308.0</ele><time>2026-04-04T09:54:27.872Z</time></trkpt><trkpt lat="44.1658986" lon="10.1434173"><ele>308.0</ele><time>2026-04-04T09:54:38.902Z</time></trkpt><trkpt lat="44.1659434" lon="10.1434829"><ele>308.0</ele><time>2026-04-04T09:54:44.887Z</time></trkpt><trkpt lat="44.1659769" lon="10.1435611"><ele>308.0</ele><time>2026-04-04T09:54:49.885Z</time></trkpt><trkpt lat="44.166032" lon="10.1436177"><ele>310.7142857142857</ele><time>2026-04-04T09:54:55.874Z</time></trkpt><trkpt lat="44.1660741" lon="10.1436929"><ele>313.42857142857144</ele><time>2026-04-04T09:55:08.879Z</time></trkpt><trkpt lat="44.1660848" lon="10.1437878"><ele>316.1428571428571</ele><time>2026-04-04T09:55:16.877Z</time></trkpt><trkpt lat="44.1661062" lon="10.1438752"><ele>318.8571428571429</ele><time>2026-04-04T09:55:24.886Z</time></trkpt><trkpt lat="44.1661492" lon="10.1439567"><ele>321.57142857142856</ele><time>2026-04-04T09:55:37.895Z</time></trkpt><trkpt lat="44.1661988" lon="10.1440391"><ele>324.2857142857143</ele><time>2026-04-04T09:55:45.881Z</time></trkpt><trkpt lat="44.1662393" lon="10.1441162"><ele>327.0</ele><time>2026-04-04T09:55:51.867Z</time></trkpt><trkpt lat="44.1662803" lon="10.1441838"><ele>329.42857142857144</ele><time>2026-04-04T09:56:00.873Z</time></trkpt><trkpt lat="44.1663072" lon="10.1442722"><ele>331.8571428571429</ele><time>2026-04-04T09:56:16.865Z</time></trkpt><trkpt lat="44.1663484" lon="10.144352"><ele>334.28571428571433</ele><time>2026-04-04T09:56:21.889Z</time></trkpt><trkpt lat="44.1663979" lon="10.1444279"><ele>336.7142857142857</ele><time>2026-04-04T09:56:26.896Z</time></trkpt><trkpt lat="44.1664343" lon="10.1445025"><ele>339.14285714285717</ele><time>2026-04-04T09:56:30.887Z</time></trkpt><trkpt lat="44.1664806" lon="10.144582"><ele>341.5714285714286</ele><time>2026-04-04T09:56:35.876Z</time></trkpt><trkpt lat="44.1665208" lon="10.1446624"><ele>344.0</ele><time>2026-04-04T09:56:42.903Z</time></trkpt><trkpt lat="44.1665775" lon="10.1447218"><ele>340.0</ele><time>2026-04-04T09:56:48.878Z</time></trkpt><trkpt lat="44.1666608" lon="10.144679"><ele>336.0</ele><time>2026-04-04T09:57:31.878Z</time></trkpt><trkpt lat="44.1667119" lon="10.1447783"><ele>332.0</ele><time>2026-04-04T09:59:15.825Z</time></trkpt><trkpt lat="44.1667467" lon="10.1448535"><ele>328.0</ele><time>2026-04-04T09:59:26.879Z</time></trkpt><trkpt lat="44.1667794" lon="10.1449469"><ele>324.0</ele><time>2026-04-04T09:59:31.899Z</time></trkpt><trkpt lat="44.1668098" lon="10.1450294"><ele>320.0</ele><time>2026-04-04T09:59:38.869Z</time></trkpt><trkpt lat="44.1668486" lon="10.1451093"><ele>320.0</ele><time>2026-04-04T09:59:44.81Z</time></trkpt><trkpt lat="44.1668751" lon="10.1451917"><ele>320.0</ele><time>2026-04-04T09:59:51.879Z</time></trkpt><trkpt lat="44.1669179" lon="10.1452812"><ele>320.0</ele><time>2026-04-04T09:59:57.894Z</time></trkpt><trkpt lat="44.1669577" lon="10.1453558"><ele>320.0</ele><time>2026-04-04T10:00:03.886Z</time></trkpt><trkpt lat="44.1669957" lon="10.1454278"><ele>320.0</ele><time>2026-04-04T10:00:11.867Z</time></trkpt><trkpt lat="44.1670339" lon="10.1455114"><ele>320.0</ele><time>2026-04-04T10:00:17.889Z</time></trkpt><trkpt lat="44.1670478" lon="10.1456005"><ele>320.0</ele><time>2026-04-04T10:00:25.871Z</time></trkpt><trkpt lat="44.1670214" lon="10.1456988"><ele>321.42857142857144</ele><time>2026-04-04T10:00:44.888Z</time></trkpt><trkpt lat="44.1670427" lon="10.1458071"><ele>322.8571428571429</ele><time>2026-04-04T10:01:08.883Z</time></trkpt><trkpt lat="44.1670826" lon="10.145893"><ele>324.28571428571433</ele><time>2026-04-04T10:01:21.794Z</time></trkpt><trkpt lat="44.1671179" lon="10.145977"><ele>325.7142857142857</ele><time>2026-04-04T10:01:26.876Z</time></trkpt><trkpt lat="44.1671132" lon="10.146071"><ele>327.14285714285717</ele><time>2026-04-04T10:01:34.871Z</time></trkpt><trkpt lat="44.1671523" lon="10.1461446"><ele>328.5714285714286</ele><time>2026-04-04T10:01:40.879Z</time></trkpt><trkpt lat="44.167176" lon="10.1462364"><ele>330.0</ele><time>2026-04-04T10:01:48.79Z</time></trkpt><trkpt lat="44.1671792" lon="10.1463342"><ele>330.00000000000006</ele><time>2026-04-04T10:01:56.89Z</time></trkpt><trkpt lat="44.1671954" lon="10.1464359"><ele>330.0</ele><time>2026-04-04T10:02:02.879Z</time></trkpt><trkpt lat="44.1672193" lon="10.1465241"><ele>330.0</ele><time>2026-04-04T10:02:09.884Z</time></trkpt><trkpt lat="44.1671746" lon="10.1466078"><ele>330.0</ele><time>2026-04-04T10:02:34.883Z</time></trkpt><trkpt lat="44.1671287" lon="10.146675"><ele>330.0</ele><time>2026-04-04T10:02:45.872Z</time></trkpt><trkpt lat="44.1670869" lon="10.1467442"><ele>330.00000000000006</ele><time>2026-04-04T10:02:53.787Z</time></trkpt><trkpt lat="44.1670304" lon="10.1467894"><ele>330.0</ele><time>2026-04-04T10:02:58.882Z</time></trkpt><trkpt lat="44.166971" lon="10.1468266"><ele>330.14285714285717</ele><time>2026-04-04T10:03:06.892Z</time></trkpt><trkpt lat="44.1670135" lon="10.1468988"><ele>330.2857142857143</ele><time>2026-04-04T10:03:30.884Z</time></trkpt><trkpt lat="44.167065" lon="10.1469529"><ele>330.42857142857144</ele><time>2026-04-04T10:03:42.894Z</time></trkpt><trkpt lat="44.1671172" lon="10.1470106"><ele>330.57142857142856</ele><time>2026-04-04T10:03:51.888Z</time></trkpt><trkpt lat="44.1671766" lon="10.14708"><ele>330.7142857142857</ele><time>2026-04-04T10:04:06.899Z</time></trkpt><trkpt lat="44.1672251" lon="10.1471363"><ele>330.8571428571429</ele><time>2026-04-04T10:04:10.879Z</time></trkpt><trkpt lat="44.1672672" lon="10.1472044"><ele>331.0</ele><time>2026-04-04T10:04:15.895Z</time></trkpt><trkpt lat="44.1673334" lon="10.1472373"><ele>325.5</ele><time>2026-04-04T10:04:23.887Z</time></trkpt><trkpt lat="44.1673681" lon="10.1473236"><ele>320.0</ele><time>2026-04-04T10:04:28.886Z</time></trkpt><trkpt lat="44.1674017" lon="10.1473983"><ele>314.5</ele><time>2026-04-04T10:04:33.888Z</time></trkpt><trkpt lat="44.1674685" lon="10.1474983"><ele>309.0</ele><time>2026-04-04T10:05:01.894Z</time></trkpt><trkpt lat="44.1675355" lon="10.1475239"><ele>303.5</ele><time>2026-04-04T10:05:11.887Z</time></trkpt><trkpt lat="44.1676043" lon="10.1476161"><ele>298.0</ele><time>2026-04-04T10:05:35.883Z</time></trkpt><trkpt lat="44.1676533" lon="10.1476918"><ele>298.0</ele><time>2026-04-04T10:05:41.876Z</time></trkpt><trkpt lat="44.1677117" lon="10.1477342"><ele>298.0</ele><time>2026-04-04T10:05:48.88Z</time></trkpt><trkpt lat="44.1677643" lon="10.1477988"><ele>298.0</ele><time>2026-04-04T10:05:57.851Z</time></trkpt><trkpt lat="44.1678038" lon="10.1478755"><ele>298.0</ele><time>2026-04-04T10:06:12.879Z</time></trkpt><trkpt lat="44.1678279" lon="10.1479654"><ele>298.0</ele><time>2026-04-04T10:06:22.892Z</time></trkpt><trkpt lat="44.1678654" lon="10.1480405"><ele>298.0</ele><time>2026-04-04T10:06:28.883Z</time></trkpt><trkpt lat="44.1678982" lon="10.1481273"><ele>298.0</ele><time>2026-04-04T10:06:35.908Z</time></trkpt><trkpt lat="44.1679074" lon="10.1482182"><ele>298.57142857142856</ele><time>2026-04-04T10:06:44.879Z</time></trkpt><trkpt lat="44.1679471" lon="10.1482913"><ele>299.1428571428571</ele><time>2026-04-04T10:07:50.83Z</time></trkpt><trkpt lat="44.1679474" lon="10.1483801"><ele>299.7142857142857</ele><time>2026-04-04T10:08:22.832Z</time></trkpt><trkpt lat="44.1679355" lon="10.148489"><ele>300.2857142857143</ele><time>2026-04-04T10:09:26.832Z</time></trkpt><trkpt lat="44.1679014" lon="10.148577"><ele>300.8571428571429</ele><time>2026-04-04T10:09:32.848Z</time></trkpt><trkpt lat="44.1678556" lon="10.1486489"><ele>301.42857142857144</ele><time>2026-04-04T10:09:37.848Z</time></trkpt><trkpt lat="44.1678244" lon="10.1487406"><ele>302.0</ele><time>2026-04-04T10:09:52.787Z</time></trkpt><trkpt lat="44.1678214" lon="10.1488329"><ele>302.00000000000006</ele><time>2026-04-04T10:09:56.828Z</time></trkpt><trkpt lat="44.1677967" lon="10.1489161"><ele>302.0</ele><time>2026-04-04T10:10:03.883Z</time></trkpt><trkpt lat="44.1678154" lon="10.1490011"><ele>302.0</ele><time>2026-04-04T10:10:11.869Z</time></trkpt><trkpt lat="44.1678347" lon="10.1491005"><ele>302.0</ele><time>2026-04-04T10:10:15.786Z</time></trkpt><trkpt lat="44.1678475" lon="10.1491959"><ele>302.0</ele><time>2026-04-04T10:10:21.845Z</time></trkpt><trkpt lat="44.1678698" lon="10.1492897"><ele>302.00000000000006</ele><time>2026-04-04T10:10:34.878Z</time></trkpt><trkpt lat="44.167917" lon="10.1493499"><ele>302.0</ele><time>2026-04-04T10:10:39.888Z</time></trkpt><trkpt lat="44.1679429" lon="10.149436"><ele>300.8571428571429</ele><time>2026-04-04T10:10:44.844Z</time></trkpt><trkpt lat="44.1679459" lon="10.1495271"><ele>299.7142857142857</ele><time>2026-04-04T10:10:49.875Z</time></trkpt><trkpt lat="44.1679497" lon="10.1496243"><ele>298.57142857142856</ele><time>2026-04-04T10:10:56.873Z</time></trkpt><trkpt lat="44.1679703" lon="10.1497221"><ele>297.42857142857144</ele><time>2026-04-04T10:11:11.885Z</time></trkpt><trkpt lat="44.1680025" lon="10.1498152"><ele>296.2857142857143</ele><time>2026-04-04T10:11:16.887Z</time></trkpt><trkpt lat="44.1680187" lon="10.1499134"><ele>295.14285714285717</ele><time>2026-04-04T10:11:21.886Z</time></trkpt><trkpt lat="44.168025" lon="10.1500078"><ele>294.0</ele><time>2026-04-04T10:11:27.87Z</time></trkpt><trkpt lat="44.1680442" lon="10.1500963"><ele>292.57142857142856</ele><time>2026-04-04T10:11:39.875Z</time></trkpt><trkpt lat="44.1680605" lon="10.1501947"><ele>291.1428571428571</ele><time>2026-04-04T10:11:44.88Z</time></trkpt><trkpt lat="44.1681106" lon="10.1502725"><ele>289.7142857142857</ele><time>2026-04-04T10:11:50.891Z</time></trkpt><trkpt lat="44.1681525" lon="10.1503437"><ele>288.2857142857143</ele><time>2026-04-04T10:11:58.876Z</time></trkpt><trkpt lat="44.1681807" lon="10.1504245"><ele>286.85714285714283</ele><time>2026-04-04T10:12:05.874Z</time></trkpt><trkpt lat="44.1682068" lon="10.1505118"><ele>285.42857142857144</ele><time>2026-04-04T10:12:11.89Z</time></trkpt><trkpt lat="44.1682564" lon="10.1505761"><ele>284.0</ele><time>2026-04-04T10:12:18.914Z</time></trkpt><trkpt lat="44.1683214" lon="10.1506044"><ele>281.2857142857143</ele><time>2026-04-04T10:12:28.875Z</time></trkpt><trkpt lat="44.1683942" lon="10.1505968"><ele>278.57142857142856</ele><time>2026-04-04T10:12:37.866Z</time></trkpt><trkpt lat="44.1683993" lon="10.1506851"><ele>275.85714285714283</ele><time>2026-04-04T10:12:45.883Z</time></trkpt><trkpt lat="44.1684494" lon="10.150749"><ele>273.1428571428571</ele><time>2026-04-04T10:13:06.897Z</time></trkpt><trkpt lat="44.1684767" lon="10.15084"><ele>270.42857142857144</ele><time>2026-04-04T10:13:45.81Z</time></trkpt><trkpt lat="44.168503" lon="10.150932"><ele>267.71428571428567</ele><time>2026-04-04T10:13:50.878Z</time></trkpt><trkpt lat="44.1685043" lon="10.1508403"><ele>265.0</ele><time>2026-04-04T10:15:10.832Z</time></trkpt><trkpt lat="44.1684454" lon="10.1508001"><ele>255.0</ele><time>2026-04-04T10:15:36.885Z</time></trkpt><trkpt lat="44.1684173" lon="10.1507184"><ele>255.0</ele><time>2026-04-04T10:15:57.884Z</time></trkpt><trkpt lat="44.168391" lon="10.1506242"><ele>265.0</ele><time>2026-04-04T10:16:07.878Z</time></trkpt></trkseg><trkseg><trkpt lat="44.1686533" lon="10.1504999"><ele>264.99999999999994</ele><time>2026-04-04T10:47:11.878Z</time></trkpt><trkpt lat="44.1687275" lon="10.1504858"><ele>265.0</ele><time>2026-04-04T10:47:15.897Z</time></trkpt><trkpt lat="44.1687901" lon="10.1504606"><ele>265.0</ele><time>2026-04-04T10:47:20.886Z</time></trkpt><trkpt lat="44.1688549" lon="10.1504516"><ele>265.0</ele><time>2026-04-04T10:47:26.887Z</time></trkpt><trkpt lat="44.1689196" lon="10.1504517"><ele>265.0</ele><time>2026-04-04T10:47:31.923Z</time></trkpt><trkpt lat="44.1689835" lon="10.1504424"><ele>264.99999999999994</ele><time>2026-04-04T10:47:36.918Z</time></trkpt><trkpt lat="44.1690504" lon="10.1504551"><ele>265.0</ele><time>2026-04-04T10:47:47.908Z</time></trkpt><trkpt lat="44.1691194" lon="10.1504362"><ele>263.57142857142856</ele><time>2026-04-04T10:47:53.861Z</time></trkpt><trkpt lat="44.1691891" lon="10.1504152"><ele>262.1428571428571</ele><time>2026-04-04T10:47:58.909Z</time></trkpt><trkpt lat="44.1692465" lon="10.1503623"><ele>260.7142857142857</ele><time>2026-04-04T10:48:05.917Z</time></trkpt><trkpt lat="44.1692841" lon="10.1502827"><ele>259.2857142857143</ele><time>2026-04-04T10:48:14.908Z</time></trkpt><trkpt lat="44.1693345" lon="10.1502274"><ele>257.8571428571429</ele><time>2026-04-04T10:48:23.912Z</time></trkpt><trkpt lat="44.1693864" lon="10.1501563"><ele>256.42857142857144</ele><time>2026-04-04T10:48:30.925Z</time></trkpt><trkpt lat="44.1694385" lon="10.1500989"><ele>255.0</ele><time>2026-04-04T10:48:36.912Z</time></trkpt><trkpt lat="44.1694222" lon="10.1500102"><ele>255.0</ele><time>2026-04-04T10:48:44.909Z</time></trkpt><trkpt lat="44.1693823" lon="10.1499286"><ele>255.00000000000003</ele><time>2026-04-04T10:48:49.838Z</time></trkpt><trkpt lat="44.1693385" lon="10.1498619"><ele>255.0</ele><time>2026-04-04T10:48:56.913Z</time></trkpt><trkpt lat="44.1693142" lon="10.1497772"><ele>255.0</ele><time>2026-04-04T10:49:04.907Z</time></trkpt><trkpt lat="44.1692895" lon="10.1496744"><ele>255.00000000000003</ele><time>2026-04-04T10:49:10.936Z</time></trkpt><trkpt lat="44.1692772" lon="10.1495774"><ele>255.0</ele><time>2026-04-04T10:49:16.838Z</time></trkpt><trkpt lat="44.1692714" lon="10.1494874"><ele>255.0</ele><time>2026-04-04T10:49:22.919Z</time></trkpt><trkpt lat="44.1692606" lon="10.1493871"><ele>255.14285714285717</ele><time>2026-04-04T10:49:29.913Z</time></trkpt><trkpt lat="44.1692412" lon="10.1492971"><ele>255.2857142857143</ele><time>2026-04-04T10:49:35.912Z</time></trkpt><trkpt lat="44.1692078" lon="10.1492056"><ele>255.42857142857144</ele><time>2026-04-04T10:49:50.914Z</time></trkpt><trkpt lat="44.1692001" lon="10.1491124"><ele>255.57142857142856</ele><time>2026-04-04T10:49:55.871Z</time></trkpt><trkpt lat="44.1691733" lon="10.1490294"><ele>255.7142857142857</ele><time>2026-04-04T10:50:01.923Z</time></trkpt><trkpt lat="44.1691452" lon="10.148937"><ele>255.85714285714283</ele><time>2026-04-04T10:50:08.826Z</time></trkpt><trkpt lat="44.1691398" lon="10.1488425"><ele>256.0</ele><time>2026-04-04T10:50:28.839Z</time></trkpt><trkpt lat="44.1691293" lon="10.1487468"><ele>254.7142857142857</ele><time>2026-04-04T10:50:47.921Z</time></trkpt><trkpt lat="44.1691562" lon="10.1486442"><ele>253.4285714285714</ele><time>2026-04-04T10:51:00.906Z</time></trkpt><trkpt lat="44.1691883" lon="10.1485509"><ele>252.14285714285714</ele><time>2026-04-04T10:51:04.915Z</time></trkpt><trkpt lat="44.1692271" lon="10.1484632"><ele>250.85714285714283</ele><time>2026-04-04T10:51:09.919Z</time></trkpt><trkpt lat="44.1692471" lon="10.1483767"><ele>249.57142857142856</ele><time>2026-04-04T10:51:17.932Z</time></trkpt><trkpt lat="44.1692486" lon="10.1482689"><ele>248.28571428571428</ele><time>2026-04-04T10:52:00.911Z</time></trkpt><trkpt lat="44.1691876" lon="10.148294"><ele>247.0</ele><time>2026-04-04T10:52:19.884Z</time></trkpt><trkpt lat="44.1691306" lon="10.148341"><ele>247.0</ele><time>2026-04-04T10:52:27.923Z</time></trkpt><trkpt lat="44.1690733" lon="10.1483893"><ele>247.0</ele><time>2026-04-04T10:52:34.911Z</time></trkpt><trkpt lat="44.1690327" lon="10.1484623"><ele>247.0</ele><time>2026-04-04T10:52:43.919Z</time></trkpt><trkpt lat="44.1689873" lon="10.1485322"><ele>247.0</ele><time>2026-04-04T10:52:50.911Z</time></trkpt><trkpt lat="44.1689393" lon="10.1485893"><ele>247.0</ele><time>2026-04-04T10:52:57.91Z</time></trkpt><trkpt lat="44.168882" lon="10.1486511"><ele>247.0</ele><time>2026-04-04T10:53:04.903Z</time></trkpt><trkpt lat="44.1688141" lon="10.1486818"><ele>247.0</ele><time>2026-04-04T10:53:12.907Z</time></trkpt><trkpt lat="44.1687468" lon="10.1486827"><ele>249.71428571428572</ele><time>2026-04-04T10:53:19.918Z</time></trkpt><trkpt lat="44.1686819" lon="10.1486864"><ele>252.42857142857142</ele><time>2026-04-04T10:53:26.908Z</time></trkpt><trkpt lat="44.1686181" lon="10.1486733"><ele>255.14285714285714</ele><time>2026-04-04T10:53:36.892Z</time></trkpt><trkpt lat="44.1685527" lon="10.1487009"><ele>257.8571428571429</ele><time>2026-04-04T10:53:42.906Z</time></trkpt><trkpt lat="44.1684834" lon="10.148684"><ele>260.57142857142856</ele><time>2026-04-04T10:53:49.854Z</time></trkpt><trkpt lat="44.1684149" lon="10.1486548"><ele>263.2857142857143</ele><time>2026-04-04T10:53:54.907Z</time></trkpt><trkpt lat="44.1683559" lon="10.1485981"><ele>266.0</ele><time>2026-04-04T10:54:01.913Z</time></trkpt><trkpt lat="44.1683229" lon="10.1485124"><ele>266.0</ele><time>2026-04-04T10:54:09.902Z</time></trkpt><trkpt lat="44.1683017" lon="10.1484294"><ele>266.0</ele><time>2026-04-04T10:54:16.914Z</time></trkpt><trkpt lat="44.1682895" lon="10.1483361"><ele>266.0</ele><time>2026-04-04T10:54:27.927Z</time></trkpt><trkpt lat="44.1683111" lon="10.148162"><ele>266.0</ele><time>2026-04-04T10:55:02.91Z</time></trkpt><trkpt lat="44.1682929" lon="10.1480713"><ele>266.0</ele><time>2026-04-04T10:55:07.915Z</time></trkpt><trkpt lat="44.1682915" lon="10.1479807"><ele>266.0</ele><time>2026-04-04T10:55:11.924Z</time></trkpt><trkpt lat="44.168299" lon="10.1478798"><ele>265.57142857142856</ele><time>2026-04-04T10:55:16.92Z</time></trkpt><trkpt lat="44.1682971" lon="10.1477805"><ele>265.1428571428571</ele><time>2026-04-04T10:55:23.911Z</time></trkpt><trkpt lat="44.1683031" lon="10.1476811"><ele>264.7142857142857</ele><time>2026-04-04T10:55:31.854Z</time></trkpt><trkpt lat="44.1683083" lon="10.147591"><ele>264.2857142857143</ele><time>2026-04-04T10:55:46.909Z</time></trkpt><trkpt lat="44.1682968" lon="10.1475004"><ele>263.85714285714283</ele><time>2026-04-04T10:55:53.919Z</time></trkpt><trkpt lat="44.1682986" lon="10.1474046"><ele>263.42857142857144</ele><time>2026-04-04T10:55:59.904Z</time></trkpt><trkpt lat="44.1683226" lon="10.1473152"><ele>263.0</ele><time>2026-04-04T10:56:05.945Z</time></trkpt><trkpt lat="44.1683301" lon="10.1472183"><ele>262.42857142857144</ele><time>2026-04-04T10:56:11.918Z</time></trkpt><trkpt lat="44.1683293" lon="10.1471211"><ele>261.85714285714283</ele><time>2026-04-04T10:56:17.9Z</time></trkpt><trkpt lat="44.1683398" lon="10.1470311"><ele>261.2857142857143</ele><time>2026-04-04T10:56:22.918Z</time></trkpt><trkpt lat="44.1683425" lon="10.1469432"><ele>260.7142857142857</ele><time>2026-04-04T10:56:39.909Z</time></trkpt><trkpt lat="44.1683425" lon="10.1468441"><ele>260.1428571428571</ele><time>2026-04-04T10:56:54.91Z</time></trkpt><trkpt lat="44.1683264" lon="10.1467519"><ele>259.57142857142856</ele><time>2026-04-04T10:57:01.892Z</time></trkpt><trkpt lat="44.1683294" lon="10.1466593"><ele>259.0</ele><time>2026-04-04T10:57:16.904Z</time></trkpt><trkpt lat="44.1683301" lon="10.146569"><ele>258.14285714285717</ele><time>2026-04-04T10:57:26.923Z</time></trkpt><trkpt lat="44.1682885" lon="10.1464894"><ele>257.2857142857143</ele><time>2026-04-04T10:57:34.916Z</time></trkpt><trkpt lat="44.1682575" lon="10.1463966"><ele>256.42857142857144</ele><time>2026-04-04T10:57:40.909Z</time></trkpt><trkpt lat="44.1682322" lon="10.1463147"><ele>255.57142857142858</ele><time>2026-04-04T10:57:46.919Z</time></trkpt><trkpt lat="44.1682299" lon="10.1462064"><ele>254.71428571428572</ele><time>2026-04-04T10:58:06.908Z</time></trkpt><trkpt lat="44.1682376" lon="10.1461152"><ele>253.8571428571429</ele><time>2026-04-04T10:58:12.913Z</time></trkpt><trkpt lat="44.1682396" lon="10.146026"><ele>253.00000000000003</ele><time>2026-04-04T10:58:25.915Z</time></trkpt><trkpt lat="44.1682221" lon="10.1459362"><ele>252.99999999999997</ele><time>2026-04-04T10:58:31.937Z</time></trkpt><trkpt lat="44.1682049" lon="10.1458494"><ele>253.0</ele><time>2026-04-04T10:59:00.92Z</time></trkpt><trkpt lat="44.1682224" lon="10.1457331"><ele>253.0</ele><time>2026-04-04T10:59:41.874Z</time></trkpt><trkpt lat="44.1682133" lon="10.1456269"><ele>253.0</ele><time>2026-04-04T10:59:56.822Z</time></trkpt><trkpt lat="44.1681649" lon="10.1455232"><ele>252.99999999999997</ele><time>2026-04-04T11:00:15.93Z</time></trkpt><trkpt lat="44.1681342" lon="10.1454347"><ele>253.0</ele><time>2026-04-04T11:00:24.938Z</time></trkpt><trkpt lat="44.1680887" lon="10.1453541"><ele>253.5714285714286</ele><time>2026-04-04T11:00:28.926Z</time></trkpt><trkpt lat="44.1680365" lon="10.1452778"><ele>254.14285714285717</ele><time>2026-04-04T11:00:33.907Z</time></trkpt><trkpt lat="44.1679842" lon="10.1452282"><ele>254.71428571428572</ele><time>2026-04-04T11:00:38.933Z</time></trkpt><trkpt lat="44.1679321" lon="10.1451704"><ele>255.2857142857143</ele><time>2026-04-04T11:00:45.928Z</time></trkpt><trkpt lat="44.167898" lon="10.1450867"><ele>255.8571428571429</ele><time>2026-04-04T11:00:55.913Z</time></trkpt><trkpt lat="44.167869" lon="10.1449982"><ele>256.42857142857144</ele><time>2026-04-04T11:01:05.762Z</time></trkpt><trkpt lat="44.1678293" lon="10.1449012"><ele>257.0</ele><time>2026-04-04T11:01:33.919Z</time></trkpt><trkpt lat="44.1677811" lon="10.1448113"><ele>257.0</ele><time>2026-04-04T11:01:47.92Z</time></trkpt><trkpt lat="44.1677428" lon="10.1447409"><ele>257.0</ele><time>2026-04-04T11:01:53.902Z</time></trkpt><trkpt lat="44.1677097" lon="10.1446483"><ele>257.0</ele><time>2026-04-04T11:02:11.919Z</time></trkpt><trkpt lat="44.1676621" lon="10.1445804"><ele>257.0</ele><time>2026-04-04T11:02:15.939Z</time></trkpt><trkpt lat="44.1676307" lon="10.1445033"><ele>257.0</ele><time>2026-04-04T11:02:27.926Z</time></trkpt><trkpt lat="44.1676129" lon="10.1444139"><ele>257.0</ele><time>2026-04-04T11:02:47.935Z</time></trkpt><trkpt lat="44.1675928" lon="10.1443303"><ele>257.0</ele><time>2026-04-04T11:03:19.919Z</time></trkpt><trkpt lat="44.1676109" lon="10.1442446"><ele>257.0</ele><time>2026-04-04T11:04:00.903Z</time></trkpt><trkpt lat="44.167552" lon="10.1440714"><ele>257.0</ele><time>2026-04-04T11:04:36.914Z</time></trkpt><trkpt lat="44.1675352" lon="10.1439407"><ele>257.0</ele><time>2026-04-04T11:05:01.793Z</time></trkpt><trkpt lat="44.1674942" lon="10.1438596"><ele>257.0</ele><time>2026-04-04T11:05:07.909Z</time></trkpt><trkpt lat="44.1674614" lon="10.1437719"><ele>257.0</ele><time>2026-04-04T11:06:12.94Z</time></trkpt><trkpt lat="44.1674519" lon="10.1436817"><ele>257.0</ele><time>2026-04-04T11:06:20.934Z</time></trkpt><trkpt lat="44.1673974" lon="10.1436347"><ele>258.7142857142857</ele><time>2026-04-04T11:06:41.935Z</time></trkpt><trkpt lat="44.167364" lon="10.1435527"><ele>260.42857142857144</ele><time>2026-04-04T11:06:50.917Z</time></trkpt><trkpt lat="44.1673332" lon="10.14347"><ele>262.14285714285717</ele><time>2026-04-04T11:06:56.934Z</time></trkpt><trkpt lat="44.1673134" lon="10.1433784"><ele>263.8571428571429</ele><time>2026-04-04T11:07:02.918Z</time></trkpt><trkpt lat="44.1672635" lon="10.143302"><ele>265.5714285714286</ele><time>2026-04-04T11:07:08.927Z</time></trkpt><trkpt lat="44.1672169" lon="10.1432376"><ele>267.2857142857143</ele><time>2026-04-04T11:07:13.909Z</time></trkpt><trkpt lat="44.1671995" lon="10.1431462"><ele>269.0</ele><time>2026-04-04T11:07:36.927Z</time></trkpt><trkpt lat="44.1671936" lon="10.1430532"><ele>269.0</ele><time>2026-04-04T11:07:47.917Z</time></trkpt><trkpt lat="44.167184" lon="10.1429585"><ele>269.0</ele><time>2026-04-04T11:07:52.922Z</time></trkpt><trkpt lat="44.1671567" lon="10.1428108"><ele>269.0</ele><time>2026-04-04T11:08:15.932Z</time></trkpt><trkpt lat="44.1671395" lon="10.1427049"><ele>269.0</ele><time>2026-04-04T11:08:42.912Z</time></trkpt><trkpt lat="44.167148" lon="10.1426116"><ele>269.0</ele><time>2026-04-04T11:08:47.917Z</time></trkpt><trkpt lat="44.1671554" lon="10.1425097"><ele>269.0</ele><time>2026-04-04T11:08:53.912Z</time></trkpt><trkpt lat="44.1671574" lon="10.1424192"><ele>267.14285714285717</ele><time>2026-04-04T11:08:58.909Z</time></trkpt><trkpt lat="44.1671682" lon="10.1423185"><ele>265.28571428571433</ele><time>2026-04-04T11:09:07.92Z</time></trkpt><trkpt lat="44.1671714" lon="10.1422307"><ele>263.42857142857144</ele><time>2026-04-04T11:09:19.918Z</time></trkpt><trkpt lat="44.1671766" lon="10.1421401"><ele>261.57142857142856</ele><time>2026-04-04T11:09:28.912Z</time></trkpt><trkpt lat="44.1671802" lon="10.1420491"><ele>259.71428571428567</ele><time>2026-04-04T11:09:36.933Z</time></trkpt><trkpt lat="44.1671635" lon="10.1419591"><ele>257.85714285714283</ele><time>2026-04-04T11:09:43.921Z</time></trkpt><trkpt lat="44.1671599" lon="10.1418621"><ele>256.0</ele><time>2026-04-04T11:10:02.896Z</time></trkpt><trkpt lat="44.1671382" lon="10.1417706"><ele>256.0</ele><time>2026-04-04T11:10:07.817Z</time></trkpt><trkpt lat="44.167111" lon="10.1416877"><ele>255.99999999999997</ele><time>2026-04-04T11:10:11.927Z</time></trkpt><trkpt lat="44.1670796" lon="10.1416026"><ele>256.0</ele><time>2026-04-04T11:10:20.925Z</time></trkpt><trkpt lat="44.1670725" lon="10.1415117"><ele>256.0</ele><time>2026-04-04T11:10:26.895Z</time></trkpt><trkpt lat="44.1671014" lon="10.1414171"><ele>255.99999999999997</ele><time>2026-04-04T11:10:34.924Z</time></trkpt><trkpt lat="44.1671254" lon="10.1413325"><ele>256.0</ele><time>2026-04-04T11:10:41.914Z</time></trkpt><trkpt lat="44.1671355" lon="10.1412413"><ele>256.0</ele><time>2026-04-04T11:10:48.907Z</time></trkpt><trkpt lat="44.1671367" lon="10.1411356"><ele>255.85714285714283</ele><time>2026-04-04T11:10:54.923Z</time></trkpt><trkpt lat="44.1671264" lon="10.1410439"><ele>255.7142857142857</ele><time>2026-04-04T11:11:01.905Z</time></trkpt><trkpt lat="44.1671209" lon="10.1409523"><ele>255.57142857142856</ele><time>2026-04-04T11:11:09.915Z</time></trkpt><trkpt lat="44.1670988" lon="10.1408686"><ele>255.42857142857144</ele><time>2026-04-04T11:11:19.909Z</time></trkpt><trkpt lat="44.1670796" lon="10.1407793"><ele>255.2857142857143</ele><time>2026-04-04T11:11:30.924Z</time></trkpt><trkpt lat="44.1670881" lon="10.1406911"><ele>255.14285714285717</ele><time>2026-04-04T11:11:39.917Z</time></trkpt><trkpt lat="44.1671128" lon="10.1405992"><ele>255.0</ele><time>2026-04-04T11:11:49.922Z</time></trkpt><trkpt lat="44.1671141" lon="10.1405044"><ele>254.85714285714286</ele><time>2026-04-04T11:11:54.91Z</time></trkpt><trkpt lat="44.1671147" lon="10.1404119"><ele>254.71428571428572</ele><time>2026-04-04T11:12:09.917Z</time></trkpt><trkpt lat="44.1671156" lon="10.140315"><ele>254.57142857142858</ele><time>2026-04-04T11:12:24.923Z</time></trkpt><trkpt lat="44.1671045" lon="10.1402163"><ele>254.42857142857144</ele><time>2026-04-04T11:12:35.917Z</time></trkpt><trkpt lat="44.1671154" lon="10.1401283"><ele>254.28571428571428</ele><time>2026-04-04T11:12:41.923Z</time></trkpt><trkpt lat="44.1671114" lon="10.1400267"><ele>254.14285714285717</ele><time>2026-04-04T11:12:48.911Z</time></trkpt><trkpt lat="44.1671109" lon="10.1399337"><ele>254.0</ele><time>2026-04-04T11:12:54.939Z</time></trkpt><trkpt lat="44.1671195" lon="10.1398437"><ele>253.42857142857144</ele><time>2026-04-04T11:13:00.921Z</time></trkpt><trkpt lat="44.1671433" lon="10.1397615"><ele>252.85714285714283</ele><time>2026-04-04T11:13:07.914Z</time></trkpt><trkpt lat="44.1671561" lon="10.1396649"><ele>252.28571428571428</ele><time>2026-04-04T11:13:16.93Z</time></trkpt><trkpt lat="44.1671745" lon="10.1395796"><ele>251.71428571428572</ele><time>2026-04-04T11:13:23.908Z</time></trkpt><trkpt lat="44.1672145" lon="10.1395007"><ele>251.14285714285717</ele><time>2026-04-04T11:13:33.914Z</time></trkpt><trkpt lat="44.1672281" lon="10.1394135"><ele>250.57142857142856</ele><time>2026-04-04T11:13:39.932Z</time></trkpt><trkpt lat="44.1672387" lon="10.1393255"><ele>250.0</ele><time>2026-04-04T11:13:59.921Z</time></trkpt><trkpt lat="44.1672501" lon="10.1392307"><ele>250.0</ele><time>2026-04-04T11:14:14.936Z</time></trkpt><trkpt lat="44.1672459" lon="10.1391369"><ele>250.0</ele><time>2026-04-04T11:14:30.932Z</time></trkpt><trkpt lat="44.1672514" lon="10.1390303"><ele>250.0</ele><time>2026-04-04T11:14:41.86Z</time></trkpt><trkpt lat="44.1672322" lon="10.1389289"><ele>250.0</ele><time>2026-04-04T11:14:46.907Z</time></trkpt><trkpt lat="44.167218" lon="10.1388315"><ele>250.0</ele><time>2026-04-04T11:14:51.918Z</time></trkpt><trkpt lat="44.1672285" lon="10.1387292"><ele>250.0</ele><time>2026-04-04T11:14:57.923Z</time></trkpt><trkpt lat="44.167235" lon="10.1386163"><ele>250.0</ele><time>2026-04-04T11:15:15.928Z</time></trkpt><trkpt lat="44.1672492" lon="10.1385283"><ele>248.71428571428572</ele><time>2026-04-04T11:15:27.923Z</time></trkpt><trkpt lat="44.1672391" lon="10.1384379"><ele>247.42857142857144</ele><time>2026-04-04T11:15:39.88Z</time></trkpt><trkpt lat="44.1672145" lon="10.1383564"><ele>246.14285714285717</ele><time>2026-04-04T11:15:49.909Z</time></trkpt><trkpt lat="44.1671975" lon="10.1382675"><ele>244.85714285714286</ele><time>2026-04-04T11:15:54.923Z</time></trkpt><trkpt lat="44.1671952" lon="10.1381766"><ele>243.5714285714286</ele><time>2026-04-04T11:16:02.91Z</time></trkpt><trkpt lat="44.1672176" lon="10.1380942"><ele>242.2857142857143</ele><time>2026-04-04T11:16:07.92Z</time></trkpt><trkpt lat="44.1672391" lon="10.1380088"><ele>241.0</ele><time>2026-04-04T11:16:16.914Z</time></trkpt><trkpt lat="44.1672667" lon="10.1379254"><ele>239.57142857142858</ele><time>2026-04-04T11:16:23.862Z</time></trkpt><trkpt lat="44.1672831" lon="10.1378303"><ele>238.14285714285717</ele><time>2026-04-04T11:16:30.923Z</time></trkpt><trkpt lat="44.1672384" lon="10.1377601"><ele>236.71428571428572</ele><time>2026-04-04T11:16:41.923Z</time></trkpt><trkpt lat="44.1671751" lon="10.1377388"><ele>235.28571428571428</ele><time>2026-04-04T11:16:47.91Z</time></trkpt><trkpt lat="44.1671077" lon="10.1376995"><ele>233.85714285714286</ele><time>2026-04-04T11:16:52.856Z</time></trkpt><trkpt lat="44.1670394" lon="10.1376437"><ele>232.42857142857144</ele><time>2026-04-04T11:16:56.922Z</time></trkpt><trkpt lat="44.1669807" lon="10.1376085"><ele>231.0</ele><time>2026-04-04T11:17:00.919Z</time></trkpt><trkpt lat="44.1669214" lon="10.1375773"><ele>231.0</ele><time>2026-04-04T11:17:05.922Z</time></trkpt><trkpt lat="44.1668602" lon="10.1376048"><ele>231.0</ele><time>2026-04-04T11:17:25.892Z</time></trkpt><trkpt lat="44.1667891" lon="10.1375935"><ele>231.0</ele><time>2026-04-04T11:17:32.918Z</time></trkpt><trkpt lat="44.1667241" lon="10.1375763"><ele>231.0</ele><time>2026-04-04T11:17:40.915Z</time></trkpt><trkpt lat="44.1666635" lon="10.1376218"><ele>231.0</ele><time>2026-04-04T11:17:51.84Z</time></trkpt><trkpt lat="44.1665902" lon="10.137612"><ele>231.0</ele><time>2026-04-04T11:17:57.876Z</time></trkpt><trkpt lat="44.1665215" lon="10.1375877"><ele>231.0</ele><time>2026-04-04T11:18:05.924Z</time></trkpt><trkpt lat="44.1664519" lon="10.1375836"><ele>231.28571428571428</ele><time>2026-04-04T11:18:12.904Z</time></trkpt><trkpt lat="44.1663905" lon="10.1376216"><ele>231.57142857142856</ele><time>2026-04-04T11:18:19.962Z</time></trkpt><trkpt lat="44.1663461" lon="10.1376933"><ele>231.85714285714286</ele><time>2026-04-04T11:18:26.918Z</time></trkpt><trkpt lat="44.1662857" lon="10.1377436"><ele>232.14285714285714</ele><time>2026-04-04T11:18:35.912Z</time></trkpt><trkpt lat="44.1662178" lon="10.1377515"><ele>232.42857142857142</ele><time>2026-04-04T11:18:41.878Z</time></trkpt><trkpt lat="44.1661503" lon="10.1377686"><ele>232.71428571428572</ele><time>2026-04-04T11:18:48.935Z</time></trkpt><trkpt lat="44.1660829" lon="10.1377745"><ele>233.0</ele><time>2026-04-04T11:18:55.912Z</time></trkpt><trkpt lat="44.1660163" lon="10.1377833"><ele>233.0</ele><time>2026-04-04T11:19:02.909Z</time></trkpt><trkpt lat="44.1659479" lon="10.1377707"><ele>233.0</ele><time>2026-04-04T11:19:07.926Z</time></trkpt><trkpt lat="44.1658775" lon="10.1377589"><ele>233.0</ele><time>2026-04-04T11:19:14.941Z</time></trkpt><trkpt lat="44.1658071" lon="10.1377376"><ele>233.0</ele><time>2026-04-04T11:19:21.915Z</time></trkpt><trkpt lat="44.1657446" lon="10.1376942"><ele>233.0</ele><time>2026-04-04T11:19:28.916Z</time></trkpt><trkpt lat="44.165701" lon="10.1376259"><ele>233.0</ele><time>2026-04-04T11:19:35.916Z</time></trkpt><trkpt lat="44.1656664" lon="10.1375448"><ele>233.0</ele><time>2026-04-04T11:19:42.926Z</time></trkpt><trkpt lat="44.1656197" lon="10.13747"><ele>234.0</ele><time>2026-04-04T11:19:49.927Z</time></trkpt><trkpt lat="44.1655609" lon="10.1374367"><ele>235.0</ele><time>2026-04-04T11:19:54.916Z</time></trkpt><trkpt lat="44.165487" lon="10.1374065"><ele>236.0</ele><time>2026-04-04T11:19:59.914Z</time></trkpt><trkpt lat="44.1654266" lon="10.1373662"><ele>237.0</ele><time>2026-04-04T11:20:04.907Z</time></trkpt><trkpt lat="44.1653814" lon="10.1372951"><ele>238.0</ele><time>2026-04-04T11:20:10.879Z</time></trkpt><trkpt lat="44.165343" lon="10.1372107"><ele>239.0</ele><time>2026-04-04T11:20:22.919Z</time></trkpt><trkpt lat="44.1653222" lon="10.137121"><ele>240.0</ele><time>2026-04-04T11:20:29.925Z</time></trkpt><trkpt lat="44.1652889" lon="10.1370319"><ele>240.0</ele><time>2026-04-04T11:20:35.939Z</time></trkpt><trkpt lat="44.1652553" lon="10.1369458"><ele>240.0</ele><time>2026-04-04T11:20:42.904Z</time></trkpt><trkpt lat="44.1652237" lon="10.1368489"><ele>240.0</ele><time>2026-04-04T11:21:05.819Z</time></trkpt><trkpt lat="44.1651669" lon="10.1367756"><ele>240.0</ele><time>2026-04-04T11:21:17.925Z</time></trkpt><trkpt lat="44.1651044" lon="10.1366777"><ele>240.0</ele><time>2026-04-04T11:21:33.918Z</time></trkpt><trkpt lat="44.1650748" lon="10.1365965"><ele>240.0</ele><time>2026-04-04T11:21:38.885Z</time></trkpt><trkpt lat="44.1650414" lon="10.1365122"><ele>238.57142857142858</ele><time>2026-04-04T11:21:44.918Z</time></trkpt><trkpt lat="44.1650069" lon="10.1364381"><ele>237.1428571428571</ele><time>2026-04-04T11:21:51.905Z</time></trkpt><trkpt lat="44.1649536" lon="10.1363698"><ele>235.7142857142857</ele><time>2026-04-04T11:21:59.919Z</time></trkpt><trkpt lat="44.1649018" lon="10.1362497"><ele>234.28571428571428</ele><time>2026-04-04T11:22:22.911Z</time></trkpt><trkpt lat="44.1648714" lon="10.1361723"><ele>232.85714285714283</ele><time>2026-04-04T11:22:27.856Z</time></trkpt><trkpt lat="44.1648426" lon="10.136089"><ele>231.4285714285714</ele><time>2026-04-04T11:22:32.914Z</time></trkpt><trkpt lat="44.1647972" lon="10.1360132"><ele>229.99999999999997</ele><time>2026-04-04T11:22:39.858Z</time></trkpt><trkpt lat="44.1647603" lon="10.1359298"><ele>231.1428571428571</ele><time>2026-04-04T11:22:47.921Z</time></trkpt><trkpt lat="44.1647251" lon="10.1358486"><ele>232.28571428571428</ele><time>2026-04-04T11:22:54.915Z</time></trkpt><trkpt lat="44.1646927" lon="10.1357638"><ele>233.42857142857142</ele><time>2026-04-04T11:23:03.905Z</time></trkpt><trkpt lat="44.1646611" lon="10.1356752"><ele>234.57142857142856</ele><time>2026-04-04T11:23:11.921Z</time></trkpt><trkpt lat="44.1646082" lon="10.1356232"><ele>235.71428571428572</ele><time>2026-04-04T11:23:17.836Z</time></trkpt><trkpt lat="44.164558" lon="10.1355683"><ele>236.85714285714286</ele><time>2026-04-04T11:23:23.925Z</time></trkpt><trkpt lat="44.1645234" lon="10.1354852"><ele>238.0</ele><time>2026-04-04T11:23:29.931Z</time></trkpt><trkpt lat="44.1644976" lon="10.1353908"><ele>238.0</ele><time>2026-04-04T11:23:36.913Z</time></trkpt><trkpt lat="44.1644606" lon="10.1353099"><ele>238.0</ele><time>2026-04-04T11:23:42.82Z</time></trkpt><trkpt lat="44.1644209" lon="10.1352368"><ele>238.0</ele><time>2026-04-04T11:23:48.931Z</time></trkpt><trkpt lat="44.1643854" lon="10.1351542"><ele>238.0</ele><time>2026-04-04T11:23:54.92Z</time></trkpt><trkpt lat="44.1643603" lon="10.1350619"><ele>238.0</ele><time>2026-04-04T11:24:15.919Z</time></trkpt><trkpt lat="44.164328" lon="10.1349759"><ele>238.0</ele><time>2026-04-04T11:24:22.907Z</time></trkpt><trkpt lat="44.1642947" lon="10.1348941"><ele>238.0</ele><time>2026-04-04T11:24:28.915Z</time></trkpt><trkpt lat="44.1642609" lon="10.1348141"><ele>236.57142857142856</ele><time>2026-04-04T11:24:35.928Z</time></trkpt><trkpt lat="44.1642136" lon="10.1347463"><ele>235.14285714285714</ele><time>2026-04-04T11:24:41.937Z</time></trkpt><trkpt lat="44.1641682" lon="10.1346766"><ele>233.71428571428572</ele><time>2026-04-04T11:24:47.945Z</time></trkpt><trkpt lat="44.1641198" lon="10.1345974"><ele>232.28571428571428</ele><time>2026-04-04T11:24:54.938Z</time></trkpt><trkpt lat="44.1640825" lon="10.1345219"><ele>230.85714285714283</ele><time>2026-04-04T11:25:00.933Z</time></trkpt><trkpt lat="44.1640565" lon="10.1344345"><ele>229.42857142857142</ele><time>2026-04-04T11:25:06.902Z</time></trkpt><trkpt lat="44.1640442" lon="10.1343427"><ele>228.0</ele><time>2026-04-04T11:25:12.917Z</time></trkpt><trkpt lat="44.1640198" lon="10.1342607"><ele>231.85714285714283</ele><time>2026-04-04T11:25:18.931Z</time></trkpt><trkpt lat="44.1639959" lon="10.1341735"><ele>235.7142857142857</ele><time>2026-04-04T11:25:25.944Z</time></trkpt><trkpt lat="44.1639639" lon="10.1340914"><ele>239.57142857142856</ele><time>2026-04-04T11:25:37.916Z</time></trkpt><trkpt lat="44.1639486" lon="10.1339879"><ele>243.42857142857144</ele><time>2026-04-04T11:25:43.956Z</time></trkpt><trkpt lat="44.1639246" lon="10.1339033"><ele>247.2857142857143</ele><time>2026-04-04T11:25:49.904Z</time></trkpt><trkpt lat="44.1639151" lon="10.1338156"><ele>251.14285714285717</ele><time>2026-04-04T11:25:55.914Z</time></trkpt><trkpt lat="44.1639004" lon="10.1337244"><ele>255.0</ele><time>2026-04-04T11:26:02.936Z</time></trkpt><trkpt lat="44.1638876" lon="10.1336244"><ele>255.0</ele><time>2026-04-04T11:26:09.911Z</time></trkpt><trkpt lat="44.1638781" lon="10.1335368"><ele>255.00000000000003</ele><time>2026-04-04T11:26:15.854Z</time></trkpt><trkpt lat="44.1639001" lon="10.1334403"><ele>255.0</ele><time>2026-04-04T11:26:21.913Z</time></trkpt><trkpt lat="44.1639118" lon="10.1333514"><ele>255.0</ele><time>2026-04-04T11:26:26.916Z</time></trkpt><trkpt lat="44.1638958" lon="10.1332597"><ele>255.00000000000003</ele><time>2026-04-04T11:26:31.925Z</time></trkpt><trkpt lat="44.1638656" lon="10.1331754"><ele>255.0</ele><time>2026-04-04T11:26:38.91Z</time></trkpt><trkpt lat="44.1638461" lon="10.1330824"><ele>255.0</ele><time>2026-04-04T11:26:45.86Z</time></trkpt><trkpt lat="44.1638335" lon="10.1329821"><ele>252.14285714285717</ele><time>2026-04-04T11:26:52.837Z</time></trkpt><trkpt lat="44.1638087" lon="10.1328904"><ele>249.2857142857143</ele><time>2026-04-04T11:27:00.921Z</time></trkpt><trkpt lat="44.1637853" lon="10.1328056"><ele>246.42857142857144</ele><time>2026-04-04T11:27:06.914Z</time></trkpt><trkpt lat="44.1637834" lon="10.1327076"><ele>243.57142857142856</ele><time>2026-04-04T11:27:14.913Z</time></trkpt><trkpt lat="44.163777" lon="10.1326071"><ele>240.7142857142857</ele><time>2026-04-04T11:27:20.911Z</time></trkpt><trkpt lat="44.1637658" lon="10.1325204"><ele>237.85714285714283</ele><time>2026-04-04T11:27:25.815Z</time></trkpt><trkpt lat="44.1637479" lon="10.1324234"><ele>235.0</ele><time>2026-04-04T11:27:32.919Z</time></trkpt><trkpt lat="44.1637523" lon="10.1323301"><ele>233.42857142857142</ele><time>2026-04-04T11:27:39.912Z</time></trkpt><trkpt lat="44.1638027" lon="10.1322517"><ele>231.85714285714283</ele><time>2026-04-04T11:27:44.926Z</time></trkpt><trkpt lat="44.163836" lon="10.1321681"><ele>230.28571428571428</ele><time>2026-04-04T11:27:52.949Z</time></trkpt><trkpt lat="44.1638546" lon="10.1320747"><ele>228.71428571428572</ele><time>2026-04-04T11:27:59.944Z</time></trkpt><trkpt lat="44.1638558" lon="10.1319783"><ele>227.14285714285714</ele><time>2026-04-04T11:28:09.922Z</time></trkpt><trkpt lat="44.1638816" lon="10.1318872"><ele>225.57142857142856</ele><time>2026-04-04T11:28:16.927Z</time></trkpt><trkpt lat="44.1639133" lon="10.1318069"><ele>224.0</ele><time>2026-04-04T11:28:23.917Z</time></trkpt><trkpt lat="44.1639337" lon="10.1317064"><ele>224.0</ele><time>2026-04-04T11:28:33.924Z</time></trkpt><trkpt lat="44.1639515" lon="10.1316059"><ele>224.0</ele><time>2026-04-04T11:28:38.927Z</time></trkpt><trkpt lat="44.1639469" lon="10.1315149"><ele>224.0</ele><time>2026-04-04T11:28:57.924Z</time></trkpt><trkpt lat="44.1639274" lon="10.1314251"><ele>224.0</ele><time>2026-04-04T11:29:01.937Z</time></trkpt><trkpt lat="44.16392" lon="10.1313251"><ele>224.0</ele><time>2026-04-04T11:29:06.817Z</time></trkpt><trkpt lat="44.1639209" lon="10.1312352"><ele>224.0</ele><time>2026-04-04T11:29:10.915Z</time></trkpt><trkpt lat="44.1639193" lon="10.1311418"><ele>224.0</ele><time>2026-04-04T11:29:16.921Z</time></trkpt><trkpt lat="44.1639357" lon="10.131006"><ele>223.14285714285714</ele><time>2026-04-04T11:29:35.875Z</time></trkpt><trkpt lat="44.1639412" lon="10.130908"><ele>222.28571428571428</ele><time>2026-04-04T11:29:40.922Z</time></trkpt><trkpt lat="44.1638992" lon="10.1308423"><ele>221.42857142857144</ele><time>2026-04-04T11:29:45.923Z</time></trkpt><trkpt lat="44.1638469" lon="10.1307886"><ele>220.57142857142856</ele><time>2026-04-04T11:29:54.915Z</time></trkpt><trkpt lat="44.1637963" lon="10.1307187"><ele>219.71428571428572</ele><time>2026-04-04T11:30:01.917Z</time></trkpt><trkpt lat="44.1637636" lon="10.1306354"><ele>218.85714285714286</ele><time>2026-04-04T11:30:18.946Z</time></trkpt><trkpt lat="44.1637402" lon="10.1305502"><ele>218.0</ele><time>2026-04-04T11:30:24.911Z</time></trkpt><trkpt lat="44.1637357" lon="10.1304481"><ele>218.0</ele><time>2026-04-04T11:30:30.933Z</time></trkpt><trkpt lat="44.1637809" lon="10.1303749"><ele>218.0</ele><time>2026-04-04T11:30:38.927Z</time></trkpt><trkpt lat="44.1638447" lon="10.1303333"><ele>218.0</ele><time>2026-04-04T11:30:44.851Z</time></trkpt><trkpt lat="44.1639029" lon="10.1302987"><ele>218.0</ele><time>2026-04-04T11:30:49.931Z</time></trkpt><trkpt lat="44.1639464" lon="10.1303689"><ele>218.0</ele><time>2026-04-04T11:31:20.941Z</time></trkpt><trkpt lat="44.1639898" lon="10.1302998"><ele>218.0</ele><time>2026-04-04T11:32:21.913Z</time></trkpt><trkpt lat="44.1640445" lon="10.1302306"><ele>218.0</ele><time>2026-04-04T11:32:26.917Z</time></trkpt><trkpt lat="44.1640896" lon="10.1301596"><ele>218.14285714285714</ele><time>2026-04-04T11:32:31.925Z</time></trkpt><trkpt lat="44.1641323" lon="10.1300911"><ele>218.28571428571428</ele><time>2026-04-04T11:32:36.862Z</time></trkpt><trkpt lat="44.1641702" lon="10.1300091"><ele>218.42857142857144</ele><time>2026-04-04T11:32:43.904Z</time></trkpt><trkpt lat="44.1641288" lon="10.1299392"><ele>218.57142857142856</ele><time>2026-04-04T11:32:50.94Z</time></trkpt><trkpt lat="44.1640844" lon="10.1298748"><ele>218.7142857142857</ele><time>2026-04-04T11:33:01.913Z</time></trkpt><trkpt lat="44.1640733" lon="10.1297883"><ele>218.85714285714286</ele><time>2026-04-04T11:33:06.93Z</time></trkpt><trkpt lat="44.1640473" lon="10.1297051"><ele>219.0</ele><time>2026-04-04T11:33:13.921Z</time></trkpt><trkpt lat="44.1639879" lon="10.1296526"><ele>219.71428571428572</ele><time>2026-04-04T11:33:22.91Z</time></trkpt><trkpt lat="44.1639243" lon="10.1296457"><ele>220.42857142857142</ele><time>2026-04-04T11:33:27.912Z</time></trkpt><trkpt lat="44.1638575" lon="10.1296264"><ele>221.14285714285714</ele><time>2026-04-04T11:33:33.904Z</time></trkpt><trkpt lat="44.1638239" lon="10.1295376"><ele>221.85714285714286</ele><time>2026-04-04T11:33:48.921Z</time></trkpt><trkpt lat="44.163764" lon="10.1294939"><ele>222.57142857142856</ele><time>2026-04-04T11:33:55.925Z</time></trkpt><trkpt lat="44.1636973" lon="10.129478"><ele>223.28571428571428</ele><time>2026-04-04T11:34:00.92Z</time></trkpt><trkpt lat="44.163641" lon="10.129426"><ele>224.0</ele><time>2026-04-04T11:34:06.915Z</time></trkpt><trkpt lat="44.1635893" lon="10.1293729"><ele>224.0</ele><time>2026-04-04T11:34:11.941Z</time></trkpt><trkpt lat="44.1635189" lon="10.1293531"><ele>224.0</ele><time>2026-04-04T11:34:18.922Z</time></trkpt><trkpt lat="44.1634636" lon="10.1292997"><ele>224.0</ele><time>2026-04-04T11:34:26.913Z</time></trkpt><trkpt lat="44.1634163" lon="10.1292374"><ele>224.0</ele><time>2026-04-04T11:34:33.92Z</time></trkpt><trkpt lat="44.1633476" lon="10.1292042"><ele>224.0</ele><time>2026-04-04T11:34:38.922Z</time></trkpt><trkpt lat="44.1633558" lon="10.1291053"><ele>224.0</ele><time>2026-04-04T11:34:45.82Z</time></trkpt><trkpt lat="44.1634215" lon="10.1290582"><ele>224.0</ele><time>2026-04-04T11:34:50.913Z</time></trkpt><trkpt lat="44.1634852" lon="10.1290255"><ele>226.0</ele><time>2026-04-04T11:34:55.907Z</time></trkpt><trkpt lat="44.1635227" lon="10.1289529"><ele>228.0</ele><time>2026-04-04T11:35:00.916Z</time></trkpt><trkpt lat="44.1635592" lon="10.1288738"><ele>230.0</ele><time>2026-04-04T11:35:07.906Z</time></trkpt><trkpt lat="44.1635846" lon="10.1287887"><ele>232.0</ele><time>2026-04-04T11:35:13.901Z</time></trkpt><trkpt lat="44.1636211" lon="10.1287098"><ele>234.0</ele><time>2026-04-04T11:35:19.909Z</time></trkpt><trkpt lat="44.163646" lon="10.1286244"><ele>236.0</ele><time>2026-04-04T11:35:25.909Z</time></trkpt><trkpt lat="44.1636773" lon="10.1285409"><ele>238.0</ele><time>2026-04-04T11:35:31.905Z</time></trkpt><trkpt lat="44.1637046" lon="10.1284616"><ele>238.0</ele><time>2026-04-04T11:35:36.898Z</time></trkpt><trkpt lat="44.16372" lon="10.1283704"><ele>238.0</ele><time>2026-04-04T11:35:42.9Z</time></trkpt><trkpt lat="44.1637373" lon="10.1282722"><ele>238.0</ele><time>2026-04-04T11:35:48.91Z</time></trkpt><trkpt lat="44.163761" lon="10.1281802"><ele>238.0</ele><time>2026-04-04T11:35:54.909Z</time></trkpt><trkpt lat="44.1637895" lon="10.1280936"><ele>238.0</ele><time>2026-04-04T11:36:01.919Z</time></trkpt><trkpt lat="44.1638216" lon="10.1280165"><ele>238.0</ele><time>2026-04-04T11:36:07.923Z</time></trkpt><trkpt lat="44.1638364" lon="10.1279233"><ele>238.0</ele><time>2026-04-04T11:36:13.917Z</time></trkpt><trkpt lat="44.1638458" lon="10.1278286"><ele>236.14285714285714</ele><time>2026-04-04T11:36:21.904Z</time></trkpt><trkpt lat="44.1638647" lon="10.1277428"><ele>234.28571428571428</ele><time>2026-04-04T11:36:27.916Z</time></trkpt><trkpt lat="44.1638817" lon="10.1276463"><ele>232.42857142857144</ele><time>2026-04-04T11:36:38.909Z</time></trkpt><trkpt lat="44.1639173" lon="10.1275731"><ele>230.57142857142858</ele><time>2026-04-04T11:36:43.919Z</time></trkpt><trkpt lat="44.1639545" lon="10.1275007"><ele>228.71428571428572</ele><time>2026-04-04T11:36:48.909Z</time></trkpt><trkpt lat="44.163987" lon="10.1274178"><ele>226.8571428571429</ele><time>2026-04-04T11:36:53.915Z</time></trkpt><trkpt lat="44.1640122" lon="10.1273299"><ele>225.00000000000003</ele><time>2026-04-04T11:36:58.914Z</time></trkpt><trkpt lat="44.1640365" lon="10.1272436"><ele>225.00000000000003</ele><time>2026-04-04T11:37:04.944Z</time></trkpt><trkpt lat="44.1640639" lon="10.1271579"><ele>225.0</ele><time>2026-04-04T11:37:10.917Z</time></trkpt><trkpt lat="44.1641186" lon="10.1270993"><ele>225.00000000000003</ele><time>2026-04-04T11:37:16.909Z</time></trkpt><trkpt lat="44.1641705" lon="10.1270369"><ele>225.00000000000003</ele><time>2026-04-04T11:37:22.927Z</time></trkpt><trkpt lat="44.1642221" lon="10.1269692"><ele>225.0</ele><time>2026-04-04T11:37:27.924Z</time></trkpt><trkpt lat="44.1642899" lon="10.1269217"><ele>225.00000000000003</ele><time>2026-04-04T11:37:33.909Z</time></trkpt><trkpt lat="44.1643415" lon="10.1268621"><ele>225.00000000000003</ele><time>2026-04-04T11:37:38.918Z</time></trkpt><trkpt lat="44.1643732" lon="10.1267839"><ele>225.00000000000003</ele><time>2026-04-04T11:37:44.917Z</time></trkpt><trkpt lat="44.1644273" lon="10.1267327"><ele>225.0</ele><time>2026-04-04T11:37:50.909Z</time></trkpt><trkpt lat="44.1644509" lon="10.1266409"><ele>225.00000000000003</ele><time>2026-04-04T11:37:56.915Z</time></trkpt><trkpt lat="44.1644715" lon="10.1265535"><ele>225.00000000000003</ele><time>2026-04-04T11:38:03.91Z</time></trkpt><trkpt lat="44.1645154" lon="10.1264749"><ele>225.0</ele><time>2026-04-04T11:38:10.921Z</time></trkpt><trkpt lat="44.1645647" lon="10.1264003"><ele>225.00000000000003</ele><time>2026-04-04T11:38:17.854Z</time></trkpt><trkpt lat="44.1646135" lon="10.1263328"><ele>225.00000000000003</ele><time>2026-04-04T11:38:23.922Z</time></trkpt><trkpt lat="44.1646662" lon="10.12627"><ele>225.42857142857144</ele><time>2026-04-04T11:38:31.856Z</time></trkpt><trkpt lat="44.1647116" lon="10.126188"><ele>225.85714285714286</ele><time>2026-04-04T11:38:40.865Z</time></trkpt><trkpt lat="44.1647302" lon="10.1260948"><ele>226.28571428571428</ele><time>2026-04-04T11:38:47.909Z</time></trkpt><trkpt lat="44.1647715" lon="10.1260087"><ele>226.71428571428572</ele><time>2026-04-04T11:38:53.916Z</time></trkpt><trkpt lat="44.164815" lon="10.1259415"><ele>227.1428571428571</ele><time>2026-04-04T11:38:58.819Z</time></trkpt><trkpt lat="44.1648655" lon="10.1258779"><ele>227.57142857142856</ele><time>2026-04-04T11:39:03.924Z</time></trkpt><trkpt lat="44.1649047" lon="10.1257893"><ele>228.0</ele><time>2026-04-04T11:39:10.938Z</time></trkpt><trkpt lat="44.1649383" lon="10.1257103"><ele>226.28571428571428</ele><time>2026-04-04T11:39:16.86Z</time></trkpt><trkpt lat="44.1649596" lon="10.1256248"><ele>224.57142857142856</ele><time>2026-04-04T11:39:23.894Z</time></trkpt><trkpt lat="44.1649811" lon="10.1255404"><ele>222.85714285714283</ele><time>2026-04-04T11:39:29.899Z</time></trkpt><trkpt lat="44.1649476" lon="10.1254522"><ele>221.14285714285714</ele><time>2026-04-04T11:39:41.918Z</time></trkpt><trkpt lat="44.1649163" lon="10.1253699"><ele>219.42857142857142</ele><time>2026-04-04T11:39:50.915Z</time></trkpt><trkpt lat="44.1648887" lon="10.1252862"><ele>217.71428571428572</ele><time>2026-04-04T11:39:57.914Z</time></trkpt><trkpt lat="44.1648745" lon="10.1252002"><ele>216.0</ele><time>2026-04-04T11:40:04.86Z</time></trkpt><trkpt lat="44.164866" lon="10.1251131"><ele>216.0</ele><time>2026-04-04T11:40:11.929Z</time></trkpt><trkpt lat="44.1648532" lon="10.1250226"><ele>216.00000000000003</ele><time>2026-04-04T11:40:18.871Z</time></trkpt><trkpt lat="44.1648334" lon="10.1249369"><ele>216.00000000000003</ele><time>2026-04-04T11:40:25.916Z</time></trkpt><trkpt lat="44.1648513" lon="10.1250949"><ele>216.0</ele><time>2026-04-04T11:50:00.91Z</time></trkpt><trkpt lat="44.1648836" lon="10.1253006"><ele>216.0</ele><time>2026-04-04T11:50:02.927Z</time></trkpt><trkpt lat="44.1649076" lon="10.1253868"><ele>216.0</ele><time>2026-04-04T11:50:03.903Z</time></trkpt><trkpt lat="44.1649516" lon="10.1254812"><ele>216.0</ele><time>2026-04-04T11:50:05.899Z</time></trkpt></trkseg></trk></gpx>